<?xml version="1.0" encoding="UTF-8"?><gpx version="1.0" creator="dbj" xmlns="http://www.topografix.com/GPX/1/0"><time>2020-09-20T07:10:42Z</time><bounds minlat="42.57684804" minlon="12.75648801" maxlat="42.58461898" maxlon="12.767661"/><wpt lat="42.584618982" lon="12.765415991"><name>Start Lat:42.5846, Lon:12.7654</name><sym>Start</sym><ele>224</ele></wpt><trk><trkseg><trkpt lat="42.584618982" lon="12.765415991"><ele>224</ele><time>2020-09-20T07:10:42Z</time></trkpt>
<trkpt lat="42.58461697" lon="12.765452033"><ele>224</ele><time>2020-09-20T07:10:43Z</time></trkpt>
<trkpt lat="42.584611019" lon="12.765488997"><ele>224</ele><time>2020-09-20T07:10:44Z</time></trkpt>
<trkpt lat="42.584602972" lon="12.765528979"><ele>224</ele><time>2020-09-20T07:10:45Z</time></trkpt>
<trkpt lat="42.584592998" lon="12.765570972"><ele>224</ele><time>2020-09-20T07:10:46Z</time></trkpt>
<trkpt lat="42.584582018" lon="12.765614977"><ele>224</ele><time>2020-09-20T07:10:47Z</time></trkpt>
<trkpt lat="42.584571037" lon="12.765660994"><ele>224</ele><time>2020-09-20T07:10:48Z</time></trkpt>
<trkpt lat="42.584559973" lon="12.765709022"><ele>224</ele><time>2020-09-20T07:10:49Z</time></trkpt>
<trkpt lat="42.584551005" lon="12.765759984"><ele>225</ele><time>2020-09-20T07:10:50Z</time></trkpt>
<trkpt lat="42.58454497" lon="12.765812036"><ele>225</ele><time>2020-09-20T07:10:51Z</time></trkpt>
<trkpt lat="42.584542036" lon="12.765867021"><ele>225</ele><time>2020-09-20T07:10:52Z</time></trkpt>
<trkpt lat="42.584540024" lon="12.765921"><ele>225</ele><time>2020-09-20T07:10:53Z</time></trkpt>
<trkpt lat="42.584536001" lon="12.765971962"><ele>226</ele><time>2020-09-20T07:10:54Z</time></trkpt>
<trkpt lat="42.584527032" lon="12.766018985"><ele>226</ele><time>2020-09-20T07:10:55Z</time></trkpt>
<trkpt lat="42.584511023" lon="12.766057961"><ele>227</ele><time>2020-09-20T07:10:56Z</time></trkpt>
<trkpt lat="42.584488979" lon="12.766087968"><ele>227</ele><time>2020-09-20T07:10:57Z</time></trkpt>
<trkpt lat="42.584464001" lon="12.766104983"><ele>227</ele><time>2020-09-20T07:10:58Z</time></trkpt>
<trkpt lat="42.584434999" lon="12.766105989"><ele>227</ele><time>2020-09-20T07:10:59Z</time></trkpt>
<trkpt lat="42.584404992" lon="12.766091991"><ele>227</ele><time>2020-09-20T07:11:00Z</time></trkpt>
<trkpt lat="42.584373979" lon="12.766066007"><ele>227</ele><time>2020-09-20T07:11:01Z</time></trkpt>
<trkpt lat="42.584342966" lon="12.766034994"><ele>227</ele><time>2020-09-20T07:11:02Z</time></trkpt>
<trkpt lat="42.584312037" lon="12.766005993"><ele>227</ele><time>2020-09-20T07:11:03Z</time></trkpt>
<trkpt lat="42.584281024" lon="12.765983026"><ele>227</ele><time>2020-09-20T07:11:04Z</time></trkpt>
<trkpt lat="42.584250011" lon="12.765965005"><ele>226</ele><time>2020-09-20T07:11:05Z</time></trkpt>
<trkpt lat="42.584218998" lon="12.765948996"><ele>226</ele><time>2020-09-20T07:11:06Z</time></trkpt>
<trkpt lat="42.584186979" lon="12.765931981"><ele>226</ele><time>2020-09-20T07:11:07Z</time></trkpt>
<trkpt lat="42.584154038" lon="12.765912032"><ele>226</ele><time>2020-09-20T07:11:08Z</time></trkpt>
<trkpt lat="42.584121013" lon="12.765891999"><ele>226</ele><time>2020-09-20T07:11:09Z</time></trkpt>
<trkpt lat="42.584091006" lon="12.765879007"><ele>226</ele><time>2020-09-20T07:11:10Z</time></trkpt>
<trkpt lat="42.58406301" lon="12.76587599"><ele>226</ele><time>2020-09-20T07:11:11Z</time></trkpt>
<trkpt lat="42.58403996" lon="12.765888982"><ele>226</ele><time>2020-09-20T07:11:12Z</time></trkpt>
<trkpt lat="42.584021017" lon="12.765914965"><ele>226</ele><time>2020-09-20T07:11:13Z</time></trkpt>
<trkpt lat="42.584006013" lon="12.765951008"><ele>227</ele><time>2020-09-20T07:11:14Z</time></trkpt>
<trkpt lat="42.583994027" lon="12.765993001"><ele>228</ele><time>2020-09-20T07:11:15Z</time></trkpt>
<trkpt lat="42.583986986" lon="12.766038012"><ele>228</ele><time>2020-09-20T07:11:16Z</time></trkpt>
<trkpt lat="42.583981035" lon="12.766085034"><ele>229</ele><time>2020-09-20T07:11:17Z</time></trkpt>
<trkpt lat="42.583978018" lon="12.766132979"><ele>230</ele><time>2020-09-20T07:11:18Z</time></trkpt>
<trkpt lat="42.583975" lon="12.766180001"><ele>230</ele><time>2020-09-20T07:11:19Z</time></trkpt>
<trkpt lat="42.583971983" lon="12.766226018"><ele>231</ele><time>2020-09-20T07:11:20Z</time></trkpt>
<trkpt lat="42.58396796" lon="12.766270023"><ele>232</ele><time>2020-09-20T07:11:21Z</time></trkpt>
<trkpt lat="42.583962008" lon="12.766312016"><ele>232</ele><time>2020-09-20T07:11:22Z</time></trkpt>
<trkpt lat="42.583956979" lon="12.766350992"><ele>233</ele><time>2020-09-20T07:11:23Z</time></trkpt>
<trkpt lat="42.583951028" lon="12.76638804"><ele>234</ele><time>2020-09-20T07:11:24Z</time></trkpt>
<trkpt lat="42.583944993" lon="12.766422993"><ele>234</ele><time>2020-09-20T07:11:25Z</time></trkpt>
<trkpt lat="42.58394097" lon="12.766455011"><ele>235</ele><time>2020-09-20T07:11:26Z</time></trkpt>
<trkpt lat="42.583936024" lon="12.766486024"><ele>235</ele><time>2020-09-20T07:11:27Z</time></trkpt>
<trkpt lat="42.583933007" lon="12.766516032"><ele>236</ele><time>2020-09-20T07:11:28Z</time></trkpt>
<trkpt lat="42.583929989" lon="12.766545033"><ele>236</ele><time>2020-09-20T07:11:29Z</time></trkpt>
<trkpt lat="42.583925966" lon="12.766571017"><ele>237</ele><time>2020-09-20T07:11:30Z</time></trkpt>
<trkpt lat="42.583901994" lon="12.766612004"><ele>238</ele><time>2020-09-20T07:11:32Z</time></trkpt>
<trkpt lat="42.58384902" lon="12.766627008"><ele>239</ele><time>2020-09-20T07:11:34Z</time></trkpt>
<trkpt lat="42.583811972" lon="12.766619967"><ele>239</ele><time>2020-09-20T07:11:35Z</time></trkpt>
<trkpt lat="42.583771991" lon="12.766603036"><ele>239</ele><time>2020-09-20T07:11:36Z</time></trkpt>
<trkpt lat="42.583729997" lon="12.766573029"><ele>239</ele><time>2020-09-20T07:11:37Z</time></trkpt>
<trkpt lat="42.583595971" lon="12.766461968"><ele>238</ele><time>2020-09-20T07:11:40Z</time></trkpt>
<trkpt lat="42.583551966" lon="12.766433973"><ele>238</ele><time>2020-09-20T07:11:41Z</time></trkpt>
<trkpt lat="42.583508966" lon="12.766411006"><ele>238</ele><time>2020-09-20T07:11:42Z</time></trkpt>
<trkpt lat="42.583467979" lon="12.766390974"><ele>238</ele><time>2020-09-20T07:11:43Z</time></trkpt>
<trkpt lat="42.583429003" lon="12.766371025"><ele>238</ele><time>2020-09-20T07:11:44Z</time></trkpt>
<trkpt lat="42.583392039" lon="12.766349986"><ele>238</ele><time>2020-09-20T07:11:45Z</time></trkpt>
<trkpt lat="42.583358008" lon="12.766328026"><ele>238</ele><time>2020-09-20T07:11:46Z</time></trkpt>
<trkpt lat="42.583324984" lon="12.766307993"><ele>237</ele><time>2020-09-20T07:11:47Z</time></trkpt>
<trkpt lat="42.583291959" lon="12.766291983"><ele>237</ele><time>2020-09-20T07:11:48Z</time></trkpt>
<trkpt lat="42.583259018" lon="12.766279997"><ele>236</ele><time>2020-09-20T07:11:49Z</time></trkpt>
<trkpt lat="42.583225993" lon="12.766273962"><ele>236</ele><time>2020-09-20T07:11:50Z</time></trkpt>
<trkpt lat="42.583193975" lon="12.766272034"><ele>235</ele><time>2020-09-20T07:11:51Z</time></trkpt>
<trkpt lat="42.583161034" lon="12.76627304"><ele>235</ele><time>2020-09-20T07:11:52Z</time></trkpt>
<trkpt lat="42.583128009" lon="12.76627698"><ele>235</ele><time>2020-09-20T07:11:53Z</time></trkpt>
<trkpt lat="42.583094984" lon="12.766283015"><ele>235</ele><time>2020-09-20T07:11:54Z</time></trkpt>
<trkpt lat="42.58306196" lon="12.766290978"><ele>235</ele><time>2020-09-20T07:11:55Z</time></trkpt>
<trkpt lat="42.583029019" lon="12.766299024"><ele>235</ele><time>2020-09-20T07:11:56Z</time></trkpt>
<trkpt lat="42.582995994" lon="12.766307993"><ele>235</ele><time>2020-09-20T07:11:57Z</time></trkpt>
<trkpt lat="42.582962969" lon="12.766316039"><ele>234</ele><time>2020-09-20T07:11:58Z</time></trkpt>
<trkpt lat="42.582863979" lon="12.766332971"><ele>234</ele><time>2020-09-20T07:12:01Z</time></trkpt>
<trkpt lat="42.582831038" lon="12.766335988"><ele>234</ele><time>2020-09-20T07:12:02Z</time></trkpt>
<trkpt lat="42.582798013" lon="12.766338"><ele>233</ele><time>2020-09-20T07:12:03Z</time></trkpt>
<trkpt lat="42.582764989" lon="12.766336994"><ele>233</ele><time>2020-09-20T07:12:04Z</time></trkpt>
<trkpt lat="42.582731964" lon="12.766333977"><ele>233</ele><time>2020-09-20T07:12:05Z</time></trkpt>
<trkpt lat="42.582699023" lon="12.766330037"><ele>232</ele><time>2020-09-20T07:12:06Z</time></trkpt>
<trkpt lat="42.582665998" lon="12.766326014"><ele>232</ele><time>2020-09-20T07:12:07Z</time></trkpt>
<trkpt lat="42.58263398" lon="12.766324002"><ele>232</ele><time>2020-09-20T07:12:08Z</time></trkpt>
<trkpt lat="42.582602967" lon="12.766328026"><ele>231</ele><time>2020-09-20T07:12:09Z</time></trkpt>
<trkpt lat="42.582573965" lon="12.766340012"><ele>231</ele><time>2020-09-20T07:12:10Z</time></trkpt>
<trkpt lat="42.582546975" lon="12.766358033"><ele>231</ele><time>2020-09-20T07:12:11Z</time></trkpt>
<trkpt lat="42.582521997" lon="12.766380999"><ele>231</ele><time>2020-09-20T07:12:12Z</time></trkpt>
<trkpt lat="42.582500959" lon="12.766407989"><ele>231</ele><time>2020-09-20T07:12:13Z</time></trkpt>
<trkpt lat="42.582483022" lon="12.76643699"><ele>231</ele><time>2020-09-20T07:12:14Z</time></trkpt>
<trkpt lat="42.582468018" lon="12.766469009"><ele>232</ele><time>2020-09-20T07:12:15Z</time></trkpt>
<trkpt lat="42.582455026" lon="12.766502034"><ele>232</ele><time>2020-09-20T07:12:16Z</time></trkpt>
<trkpt lat="42.582444968" lon="12.766535981"><ele>232</ele><time>2020-09-20T07:12:17Z</time></trkpt>
<trkpt lat="42.582435999" lon="12.766572023"><ele>233</ele><time>2020-09-20T07:12:18Z</time></trkpt>
<trkpt lat="42.58242703" lon="12.766608987"><ele>233</ele><time>2020-09-20T07:12:19Z</time></trkpt>
<trkpt lat="42.58241999" lon="12.766646035"><ele>233</ele><time>2020-09-20T07:12:20Z</time></trkpt>
<trkpt lat="42.582394006" lon="12.766761035"><ele>235</ele><time>2020-09-20T07:12:23Z</time></trkpt>
<trkpt lat="42.582385037" lon="12.766799005"><ele>235</ele><time>2020-09-20T07:12:24Z</time></trkpt>
<trkpt lat="42.582374979" lon="12.766836975"><ele>236</ele><time>2020-09-20T07:12:25Z</time></trkpt>
<trkpt lat="42.582365004" lon="12.766875029"><ele>236</ele><time>2020-09-20T07:12:26Z</time></trkpt>
<trkpt lat="42.58235503" lon="12.766912999"><ele>237</ele><time>2020-09-20T07:12:27Z</time></trkpt>
<trkpt lat="42.582343966" lon="12.766949963"><ele>237</ele><time>2020-09-20T07:12:28Z</time></trkpt>
<trkpt lat="42.582333991" lon="12.766987011"><ele>237</ele><time>2020-09-20T07:12:29Z</time></trkpt>
<trkpt lat="42.582324017" lon="12.767022969"><ele>238</ele><time>2020-09-20T07:12:30Z</time></trkpt>
<trkpt lat="42.582313959" lon="12.767059011"><ele>238</ele><time>2020-09-20T07:12:31Z</time></trkpt>
<trkpt lat="42.58230499" lon="12.767093964"><ele>239</ele><time>2020-09-20T07:12:32Z</time></trkpt>
<trkpt lat="42.582296021" lon="12.767130006"><ele>239</ele><time>2020-09-20T07:12:33Z</time></trkpt>
<trkpt lat="42.58228898" lon="12.76716697"><ele>239</ele><time>2020-09-20T07:12:34Z</time></trkpt>
<trkpt lat="42.582282024" lon="12.76720603"><ele>240</ele><time>2020-09-20T07:12:35Z</time></trkpt>
<trkpt lat="42.582275989" lon="12.767248023"><ele>240</ele><time>2020-09-20T07:12:36Z</time></trkpt>
<trkpt lat="42.582270959" lon="12.767293034"><ele>241</ele><time>2020-09-20T07:12:37Z</time></trkpt>
<trkpt lat="42.582268026" lon="12.767341984"><ele>241</ele><time>2020-09-20T07:12:38Z</time></trkpt>
<trkpt lat="42.582266014" lon="12.767394036"><ele>242</ele><time>2020-09-20T07:12:39Z</time></trkpt>
<trkpt lat="42.582264002" lon="12.767449021"><ele>243</ele><time>2020-09-20T07:12:40Z</time></trkpt>
<trkpt lat="42.582261991" lon="12.767503001"><ele>243</ele><time>2020-09-20T07:12:41Z</time></trkpt>
<trkpt lat="42.582258973" lon="12.767553041"><ele>243</ele><time>2020-09-20T07:12:42Z</time></trkpt>
<trkpt lat="42.582230978" lon="12.767652031"><ele>241</ele><time>2020-09-20T07:12:45Z</time></trkpt>
<trkpt lat="42.582214968" lon="12.767661"><ele>241</ele><time>2020-09-20T07:12:46Z</time></trkpt>
<trkpt lat="42.582195019" lon="12.767654965"><ele>241</ele><time>2020-09-20T07:12:47Z</time></trkpt>
<trkpt lat="42.582170963" lon="12.767635016"><ele>241</ele><time>2020-09-20T07:12:48Z</time></trkpt>
<trkpt lat="42.582146991" lon="12.76760702"><ele>240</ele><time>2020-09-20T07:12:49Z</time></trkpt>
<trkpt lat="42.582075996" lon="12.767498977"><ele>239</ele><time>2020-09-20T07:12:52Z</time></trkpt>
<trkpt lat="42.582054036" lon="12.767463019"><ele>239</ele><time>2020-09-20T07:12:53Z</time></trkpt>
<trkpt lat="42.582030986" lon="12.767429994"><ele>238</ele><time>2020-09-20T07:12:54Z</time></trkpt>
<trkpt lat="42.582007013" lon="12.767401999"><ele>237</ele><time>2020-09-20T07:12:55Z</time></trkpt>
<trkpt lat="42.581982035" lon="12.767378027"><ele>236</ele><time>2020-09-20T07:12:56Z</time></trkpt>
<trkpt lat="42.581955967" lon="12.767357994"><ele>236</ele><time>2020-09-20T07:12:57Z</time></trkpt>
<trkpt lat="42.581928978" lon="12.767340979"><ele>235</ele><time>2020-09-20T07:12:58Z</time></trkpt>
<trkpt lat="42.581900982" lon="12.767327987"><ele>235</ele><time>2020-09-20T07:12:59Z</time></trkpt>
<trkpt lat="42.581871981" lon="12.767317006"><ele>234</ele><time>2020-09-20T07:13:00Z</time></trkpt>
<trkpt lat="42.581841974" lon="12.767308038"><ele>233</ele><time>2020-09-20T07:13:01Z</time></trkpt>
<trkpt lat="42.581811966" lon="12.767300997"><ele>233</ele><time>2020-09-20T07:13:02Z</time></trkpt>
<trkpt lat="42.581781959" lon="12.76729404"><ele>232</ele><time>2020-09-20T07:13:03Z</time></trkpt>
<trkpt lat="42.58175103" lon="12.767289011"><ele>232</ele><time>2020-09-20T07:13:04Z</time></trkpt>
<trkpt lat="42.581719011" lon="12.767283982"><ele>231</ele><time>2020-09-20T07:13:05Z</time></trkpt>
<trkpt lat="42.581687998" lon="12.767278031"><ele>231</ele><time>2020-09-20T07:13:06Z</time></trkpt>
<trkpt lat="42.581656985" lon="12.767271996"><ele>230</ele><time>2020-09-20T07:13:07Z</time></trkpt>
<trkpt lat="42.581625972" lon="12.767264033"><ele>231</ele><time>2020-09-20T07:13:08Z</time></trkpt>
<trkpt lat="42.581594959" lon="12.76725498"><ele>231</ele><time>2020-09-20T07:13:09Z</time></trkpt>
<trkpt lat="42.58156403" lon="12.767244"><ele>231</ele><time>2020-09-20T07:13:10Z</time></trkpt>
<trkpt lat="42.581534022" lon="12.767230002"><ele>231</ele><time>2020-09-20T07:13:11Z</time></trkpt>
<trkpt lat="42.581446012" lon="12.767170994"><ele>232</ele><time>2020-09-20T07:13:14Z</time></trkpt>
<trkpt lat="42.581418017" lon="12.76714501"><ele>232</ele><time>2020-09-20T07:13:15Z</time></trkpt>
<trkpt lat="42.581391027" lon="12.76711802"><ele>232</ele><time>2020-09-20T07:13:16Z</time></trkpt>
<trkpt lat="42.581364037" lon="12.767088013"><ele>232</ele><time>2020-09-20T07:13:17Z</time></trkpt>
<trkpt lat="42.58133797" lon="12.767055994"><ele>232</ele><time>2020-09-20T07:13:18Z</time></trkpt>
<trkpt lat="42.581312992" lon="12.767021963"><ele>232</ele><time>2020-09-20T07:13:19Z</time></trkpt>
<trkpt lat="42.581289019" lon="12.766986005"><ele>231</ele><time>2020-09-20T07:13:20Z</time></trkpt>
<trkpt lat="42.581265969" lon="12.766949041"><ele>231</ele><time>2020-09-20T07:13:21Z</time></trkpt>
<trkpt lat="42.581243003" lon="12.766909981"><ele>231</ele><time>2020-09-20T07:13:22Z</time></trkpt>
<trkpt lat="42.581221964" lon="12.766868994"><ele>231</ele><time>2020-09-20T07:13:23Z</time></trkpt>
<trkpt lat="42.581201009" lon="12.766828006"><ele>230</ele><time>2020-09-20T07:13:24Z</time></trkpt>
<trkpt lat="42.581180977" lon="12.766785007"><ele>230</ele><time>2020-09-20T07:13:25Z</time></trkpt>
<trkpt lat="42.581163039" lon="12.766741002"><ele>229</ele><time>2020-09-20T07:13:26Z</time></trkpt>
<trkpt lat="42.581145018" lon="12.766696997"><ele>229</ele><time>2020-09-20T07:13:27Z</time></trkpt>
<trkpt lat="42.581129009" lon="12.766651986"><ele>229</ele><time>2020-09-20T07:13:28Z</time></trkpt>
<trkpt lat="42.581112999" lon="12.766606975"><ele>229</ele><time>2020-09-20T07:13:29Z</time></trkpt>
<trkpt lat="42.581097996" lon="12.766561965"><ele>228</ele><time>2020-09-20T07:13:30Z</time></trkpt>
<trkpt lat="42.581082992" lon="12.76651796"><ele>228</ele><time>2020-09-20T07:13:31Z</time></trkpt>
<trkpt lat="42.581066983" lon="12.766474038"><ele>228</ele><time>2020-09-20T07:13:32Z</time></trkpt>
<trkpt lat="42.581050973" lon="12.766431039"><ele>228</ele><time>2020-09-20T07:13:33Z</time></trkpt>
<trkpt lat="42.581033958" lon="12.766389968"><ele>228</ele><time>2020-09-20T07:13:34Z</time></trkpt>
<trkpt lat="42.581015015" lon="12.766350992"><ele>228</ele><time>2020-09-20T07:13:35Z</time></trkpt>
<trkpt lat="42.580994982" lon="12.766314028"><ele>228</ele><time>2020-09-20T07:13:36Z</time></trkpt>
<trkpt lat="42.580972016" lon="12.766278991"><ele>228</ele><time>2020-09-20T07:13:37Z</time></trkpt>
<trkpt lat="42.58094796" lon="12.766246973"><ele>227</ele><time>2020-09-20T07:13:38Z</time></trkpt>
<trkpt lat="42.580921976" lon="12.766216965"><ele>227</ele><time>2020-09-20T07:13:39Z</time></trkpt>
<trkpt lat="42.580835978" lon="12.766141025"><ele>227</ele><time>2020-09-20T07:13:42Z</time></trkpt>
<trkpt lat="42.58080597" lon="12.766118981"><ele>227</ele><time>2020-09-20T07:13:43Z</time></trkpt>
<trkpt lat="42.580775041" lon="12.766099032"><ele>227</ele><time>2020-09-20T07:13:44Z</time></trkpt>
<trkpt lat="42.580743022" lon="12.766080005"><ele>227</ele><time>2020-09-20T07:13:45Z</time></trkpt>
<trkpt lat="42.580711003" lon="12.76606299"><ele>227</ele><time>2020-09-20T07:13:46Z</time></trkpt>
<trkpt lat="42.580677979" lon="12.76604698"><ele>227</ele><time>2020-09-20T07:13:47Z</time></trkpt>
<trkpt lat="42.58064596" lon="12.766030971"><ele>227</ele><time>2020-09-20T07:13:48Z</time></trkpt>
<trkpt lat="42.580613019" lon="12.766014962"><ele>227</ele><time>2020-09-20T07:13:49Z</time></trkpt>
<trkpt lat="42.580579994" lon="12.76599803"><ele>227</ele><time>2020-09-20T07:13:50Z</time></trkpt>
<trkpt lat="42.58054697" lon="12.765982021"><ele>227</ele><time>2020-09-20T07:13:51Z</time></trkpt>
<trkpt lat="42.580514029" lon="12.765964"><ele>227</ele><time>2020-09-20T07:13:52Z</time></trkpt>
<trkpt lat="42.58048201" lon="12.765944973"><ele>226</ele><time>2020-09-20T07:13:53Z</time></trkpt>
<trkpt lat="42.580448985" lon="12.765925024"><ele>226</ele><time>2020-09-20T07:13:54Z</time></trkpt>
<trkpt lat="42.58041596" lon="12.765903985"><ele>226</ele><time>2020-09-20T07:13:55Z</time></trkpt>
<trkpt lat="42.580384025" lon="12.765882025"><ele>226</ele><time>2020-09-20T07:13:56Z</time></trkpt>
<trkpt lat="42.580352006" lon="12.765860986"><ele>226</ele><time>2020-09-20T07:13:57Z</time></trkpt>
<trkpt lat="42.580319988" lon="12.765840031"><ele>225</ele><time>2020-09-20T07:13:58Z</time></trkpt>
<trkpt lat="42.580287969" lon="12.765818993"><ele>225</ele><time>2020-09-20T07:13:59Z</time></trkpt>
<trkpt lat="42.580256034" lon="12.76579896"><ele>225</ele><time>2020-09-20T07:14:00Z</time></trkpt>
<trkpt lat="42.580224015" lon="12.765780017"><ele>225</ele><time>2020-09-20T07:14:01Z</time></trkpt>
<trkpt lat="42.580193002" lon="12.765761996"><ele>225</ele><time>2020-09-20T07:14:02Z</time></trkpt>
<trkpt lat="42.580160983" lon="12.765743975"><ele>225</ele><time>2020-09-20T07:14:03Z</time></trkpt>
<trkpt lat="42.58012997" lon="12.765726959"><ele>225</ele><time>2020-09-20T07:14:04Z</time></trkpt>
<trkpt lat="42.580098035" lon="12.765709022"><ele>225</ele><time>2020-09-20T07:14:05Z</time></trkpt>
<trkpt lat="42.580067022" lon="12.765691001"><ele>225</ele><time>2020-09-20T07:14:06Z</time></trkpt>
<trkpt lat="42.580036009" lon="12.765671974"><ele>225</ele><time>2020-09-20T07:14:07Z</time></trkpt>
<trkpt lat="42.580004996" lon="12.765653031"><ele>225</ele><time>2020-09-20T07:14:08Z</time></trkpt>
<trkpt lat="42.579972977" lon="12.765630987"><ele>226</ele><time>2020-09-20T07:14:09Z</time></trkpt>
<trkpt lat="42.579941964" lon="12.76560802"><ele>226</ele><time>2020-09-20T07:14:10Z</time></trkpt>
<trkpt lat="42.579911035" lon="12.765582958"><ele>227</ele><time>2020-09-20T07:14:11Z</time></trkpt>
<trkpt lat="42.579882033" lon="12.765555969"><ele>227</ele><time>2020-09-20T07:14:12Z</time></trkpt>
<trkpt lat="42.579853032" lon="12.765527973"><ele>228</ele><time>2020-09-20T07:14:13Z</time></trkpt>
<trkpt lat="42.579825958" lon="12.76549696"><ele>228</ele><time>2020-09-20T07:14:14Z</time></trkpt>
<trkpt lat="42.57980098" lon="12.765465025"><ele>229</ele><time>2020-09-20T07:14:15Z</time></trkpt>
<trkpt lat="42.57977902" lon="12.765429989"><ele>229</ele><time>2020-09-20T07:14:16Z</time></trkpt>
<trkpt lat="42.579759993" lon="12.76539403"><ele>229</ele><time>2020-09-20T07:14:17Z</time></trkpt>
<trkpt lat="42.579744989" lon="12.765355976"><ele>230</ele><time>2020-09-20T07:14:18Z</time></trkpt>
<trkpt lat="42.579731997" lon="12.765315995"><ele>230</ele><time>2020-09-20T07:14:19Z</time></trkpt>
<trkpt lat="42.579721017" lon="12.765275007"><ele>230</ele><time>2020-09-20T07:14:20Z</time></trkpt>
<trkpt lat="42.579711964" lon="12.765233014"><ele>230</ele><time>2020-09-20T07:14:21Z</time></trkpt>
<trkpt lat="42.579702996" lon="12.76519102"><ele>230</ele><time>2020-09-20T07:14:22Z</time></trkpt>
<trkpt lat="42.579694027" lon="12.765149027"><ele>230</ele><time>2020-09-20T07:14:23Z</time></trkpt>
<trkpt lat="42.579683969" lon="12.765108962"><ele>230</ele><time>2020-09-20T07:14:24Z</time></trkpt>
<trkpt lat="42.579672989" lon="12.76506898"><ele>230</ele><time>2020-09-20T07:14:25Z</time></trkpt>
<trkpt lat="42.579659997" lon="12.76503101"><ele>230</ele><time>2020-09-20T07:14:26Z</time></trkpt>
<trkpt lat="42.579643987" lon="12.764993962"><ele>231</ele><time>2020-09-20T07:14:27Z</time></trkpt>
<trkpt lat="42.579625966" lon="12.764959009"><ele>230</ele><time>2020-09-20T07:14:28Z</time></trkpt>
<trkpt lat="42.579607023" lon="12.764924979"><ele>230</ele><time>2020-09-20T07:14:29Z</time></trkpt>
<trkpt lat="42.579584979" lon="12.764892038"><ele>230</ele><time>2020-09-20T07:14:30Z</time></trkpt>
<trkpt lat="42.579561006" lon="12.764861025"><ele>230</ele><time>2020-09-20T07:14:31Z</time></trkpt>
<trkpt lat="42.579536028" lon="12.764831018"><ele>230</ele><time>2020-09-20T07:14:32Z</time></trkpt>
<trkpt lat="42.579509038" lon="12.76480101"><ele>230</ele><time>2020-09-20T07:14:33Z</time></trkpt>
<trkpt lat="42.579479031" lon="12.764772009"><ele>230</ele><time>2020-09-20T07:14:34Z</time></trkpt>
<trkpt lat="42.579449024" lon="12.764744014"><ele>230</ele><time>2020-09-20T07:14:35Z</time></trkpt>
<trkpt lat="42.579417005" lon="12.764717024"><ele>231</ele><time>2020-09-20T07:14:36Z</time></trkpt>
<trkpt lat="42.579384986" lon="12.764689028"><ele>230</ele><time>2020-09-20T07:14:37Z</time></trkpt>
<trkpt lat="42.579351962" lon="12.764662039"><ele>230</ele><time>2020-09-20T07:14:38Z</time></trkpt>
<trkpt lat="42.579319021" lon="12.764634965"><ele>230</ele><time>2020-09-20T07:14:39Z</time></trkpt>
<trkpt lat="42.579285996" lon="12.764606969"><ele>230</ele><time>2020-09-20T07:14:40Z</time></trkpt>
<trkpt lat="42.579253977" lon="12.764578974"><ele>230</ele><time>2020-09-20T07:14:41Z</time></trkpt>
<trkpt lat="42.57922397" lon="12.764549972"><ele>230</ele><time>2020-09-20T07:14:42Z</time></trkpt>
<trkpt lat="42.579193963" lon="12.764519965"><ele>230</ele><time>2020-09-20T07:14:43Z</time></trkpt>
<trkpt lat="42.579165967" lon="12.764489036"><ele>229</ele><time>2020-09-20T07:14:44Z</time></trkpt>
<trkpt lat="42.579138977" lon="12.764457017"><ele>230</ele><time>2020-09-20T07:14:45Z</time></trkpt>
<trkpt lat="42.579112994" lon="12.764424998"><ele>230</ele><time>2020-09-20T07:14:46Z</time></trkpt>
<trkpt lat="42.579088015" lon="12.764390968"><ele>230</ele><time>2020-09-20T07:14:47Z</time></trkpt>
<trkpt lat="42.579063959" lon="12.764356015"><ele>230</ele><time>2020-09-20T07:14:48Z</time></trkpt>
<trkpt lat="42.579039987" lon="12.764318967"><ele>230</ele><time>2020-09-20T07:14:49Z</time></trkpt>
<trkpt lat="42.579017021" lon="12.764282003"><ele>230</ele><time>2020-09-20T07:14:50Z</time></trkpt>
<trkpt lat="42.578994976" lon="12.764243027"><ele>230</ele><time>2020-09-20T07:14:51Z</time></trkpt>
<trkpt lat="42.578974022" lon="12.764202962"><ele>230</ele><time>2020-09-20T07:14:52Z</time></trkpt>
<trkpt lat="42.578952983" lon="12.764160968"><ele>230</ele><time>2020-09-20T07:14:53Z</time></trkpt>
<trkpt lat="42.578900009" lon="12.764031971"><ele>230</ele><time>2020-09-20T07:14:56Z</time></trkpt>
<trkpt lat="42.578886012" lon="12.76398696"><ele>230</ele><time>2020-09-20T07:14:57Z</time></trkpt>
<trkpt lat="42.578874025" lon="12.763942033"><ele>229</ele><time>2020-09-20T07:14:58Z</time></trkpt>
<trkpt lat="42.578863967" lon="12.763896016"><ele>229</ele><time>2020-09-20T07:14:59Z</time></trkpt>
<trkpt lat="42.578856004" lon="12.76385"><ele>229</ele><time>2020-09-20T07:15:00Z</time></trkpt>
<trkpt lat="42.578849969" lon="12.763802977"><ele>228</ele><time>2020-09-20T07:15:01Z</time></trkpt>
<trkpt lat="42.57884603" lon="12.763756039"><ele>228</ele><time>2020-09-20T07:15:02Z</time></trkpt>
<trkpt lat="42.578842007" lon="12.763709016"><ele>227</ele><time>2020-09-20T07:15:03Z</time></trkpt>
<trkpt lat="42.578839995" lon="12.763661994"><ele>227</ele><time>2020-09-20T07:15:04Z</time></trkpt>
<trkpt lat="42.578836977" lon="12.763613965"><ele>226</ele><time>2020-09-20T07:15:05Z</time></trkpt>
<trkpt lat="42.578834966" lon="12.763567027"><ele>225</ele><time>2020-09-20T07:15:06Z</time></trkpt>
<trkpt lat="42.578833038" lon="12.763520004"><ele>225</ele><time>2020-09-20T07:15:07Z</time></trkpt>
<trkpt lat="42.578831026" lon="12.763472982"><ele>224</ele><time>2020-09-20T07:15:08Z</time></trkpt>
<trkpt lat="42.578829015" lon="12.763425959"><ele>224</ele><time>2020-09-20T07:15:09Z</time></trkpt>
<trkpt lat="42.578825997" lon="12.763379021"><ele>223</ele><time>2020-09-20T07:15:10Z</time></trkpt>
<trkpt lat="42.578823986" lon="12.763331998"><ele>223</ele><time>2020-09-20T07:15:11Z</time></trkpt>
<trkpt lat="42.578820968" lon="12.763285981"><ele>223</ele><time>2020-09-20T07:15:12Z</time></trkpt>
<trkpt lat="42.578818034" lon="12.763238959"><ele>223</ele><time>2020-09-20T07:15:13Z</time></trkpt>
<trkpt lat="42.578815017" lon="12.763193026"><ele>222</ele><time>2020-09-20T07:15:14Z</time></trkpt>
<trkpt lat="42.578811999" lon="12.76314701"><ele>222</ele><time>2020-09-20T07:15:15Z</time></trkpt>
<trkpt lat="42.578807976" lon="12.763099987"><ele>222</ele><time>2020-09-20T07:15:16Z</time></trkpt>
<trkpt lat="42.578804959" lon="12.76305397"><ele>222</ele><time>2020-09-20T07:15:17Z</time></trkpt>
<trkpt lat="42.578793978" lon="12.76291701"><ele>222</ele><time>2020-09-20T07:15:20Z</time></trkpt>
<trkpt lat="42.578790039" lon="12.762870993"><ele>222</ele><time>2020-09-20T07:15:21Z</time></trkpt>
<trkpt lat="42.578787021" lon="12.762825983"><ele>222</ele><time>2020-09-20T07:15:22Z</time></trkpt>
<trkpt lat="42.578782998" lon="12.762779966"><ele>222</ele><time>2020-09-20T07:15:23Z</time></trkpt>
<trkpt lat="42.578777969" lon="12.762735039"><ele>222</ele><time>2020-09-20T07:15:24Z</time></trkpt>
<trkpt lat="42.578774029" lon="12.762690028"><ele>222</ele><time>2020-09-20T07:15:25Z</time></trkpt>
<trkpt lat="42.578770006" lon="12.762645017"><ele>221</ele><time>2020-09-20T07:15:26Z</time></trkpt>
<trkpt lat="42.578765983" lon="12.762600007"><ele>221</ele><time>2020-09-20T07:15:27Z</time></trkpt>
<trkpt lat="42.578761959" lon="12.762554996"><ele>221</ele><time>2020-09-20T07:15:28Z</time></trkpt>
<trkpt lat="42.57875802" lon="12.762509985"><ele>221</ele><time>2020-09-20T07:15:29Z</time></trkpt>
<trkpt lat="42.578752991" lon="12.762464974"><ele>221</ele><time>2020-09-20T07:15:30Z</time></trkpt>
<trkpt lat="42.578748967" lon="12.762419963"><ele>221</ele><time>2020-09-20T07:15:31Z</time></trkpt>
<trkpt lat="42.578746034" lon="12.762375958"><ele>221</ele><time>2020-09-20T07:15:32Z</time></trkpt>
<trkpt lat="42.578742011" lon="12.762331031"><ele>221</ele><time>2020-09-20T07:15:33Z</time></trkpt>
<trkpt lat="42.578737987" lon="12.762287026"><ele>221</ele><time>2020-09-20T07:15:34Z</time></trkpt>
<trkpt lat="42.57873497" lon="12.762242015"><ele>221</ele><time>2020-09-20T07:15:35Z</time></trkpt>
<trkpt lat="42.578732036" lon="12.76219801"><ele>221</ele><time>2020-09-20T07:15:36Z</time></trkpt>
<trkpt lat="42.578729019" lon="12.762153"><ele>221</ele><time>2020-09-20T07:15:37Z</time></trkpt>
<trkpt lat="42.578726001" lon="12.762108995"><ele>221</ele><time>2020-09-20T07:15:38Z</time></trkpt>
<trkpt lat="42.578723989" lon="12.76206499"><ele>221</ele><time>2020-09-20T07:15:39Z</time></trkpt>
<trkpt lat="42.578721978" lon="12.762019979"><ele>221</ele><time>2020-09-20T07:15:40Z</time></trkpt>
<trkpt lat="42.578720972" lon="12.761975974"><ele>221</ele><time>2020-09-20T07:15:41Z</time></trkpt>
<trkpt lat="42.57871896" lon="12.761931969"><ele>221</ele><time>2020-09-20T07:15:42Z</time></trkpt>
<trkpt lat="42.578718038" lon="12.761887964"><ele>221</ele><time>2020-09-20T07:15:43Z</time></trkpt>
<trkpt lat="42.578717032" lon="12.761843959"><ele>221</ele><time>2020-09-20T07:15:44Z</time></trkpt>
<trkpt lat="42.578716027" lon="12.761800038"><ele>221</ele><time>2020-09-20T07:15:45Z</time></trkpt>
<trkpt lat="42.578715021" lon="12.761756033"><ele>222</ele><time>2020-09-20T07:15:46Z</time></trkpt>
<trkpt lat="42.578715021" lon="12.761712028"><ele>222</ele><time>2020-09-20T07:15:47Z</time></trkpt>
<trkpt lat="42.578714015" lon="12.761668023"><ele>222</ele><time>2020-09-20T07:15:48Z</time></trkpt>
<trkpt lat="42.578713009" lon="12.761624018"><ele>222</ele><time>2020-09-20T07:15:49Z</time></trkpt>
<trkpt lat="42.578712003" lon="12.761580013"><ele>223</ele><time>2020-09-20T07:15:50Z</time></trkpt>
<trkpt lat="42.578710997" lon="12.761536008"><ele>223</ele><time>2020-09-20T07:15:51Z</time></trkpt>
<trkpt lat="42.578709992" lon="12.761493009"><ele>224</ele><time>2020-09-20T07:15:52Z</time></trkpt>
<trkpt lat="42.57870798" lon="12.761449004"><ele>224</ele><time>2020-09-20T07:15:53Z</time></trkpt>
<trkpt lat="42.578705968" lon="12.761404999"><ele>225</ele><time>2020-09-20T07:15:54Z</time></trkpt>
<trkpt lat="42.57870404" lon="12.761361999"><ele>226</ele><time>2020-09-20T07:15:55Z</time></trkpt>
<trkpt lat="42.578702029" lon="12.761319"><ele>226</ele><time>2020-09-20T07:15:56Z</time></trkpt>
<trkpt lat="42.578699011" lon="12.761274995"><ele>227</ele><time>2020-09-20T07:15:57Z</time></trkpt>
<trkpt lat="42.578695994" lon="12.761231996"><ele>227</ele><time>2020-09-20T07:15:58Z</time></trkpt>
<trkpt lat="42.578692976" lon="12.761188997"><ele>228</ele><time>2020-09-20T07:15:59Z</time></trkpt>
<trkpt lat="42.578690965" lon="12.761144992"><ele>229</ele><time>2020-09-20T07:16:00Z</time></trkpt>
<trkpt lat="42.578689959" lon="12.761101993"><ele>229</ele><time>2020-09-20T07:16:01Z</time></trkpt>
<trkpt lat="42.578687025" lon="12.761061005"><ele>230</ele><time>2020-09-20T07:16:02Z</time></trkpt>
<trkpt lat="42.57868099" lon="12.761022029"><ele>230</ele><time>2020-09-20T07:16:03Z</time></trkpt>
<trkpt lat="42.578669004" lon="12.760987999"><ele>231</ele><time>2020-09-20T07:16:04Z</time></trkpt>
<trkpt lat="42.578648971" lon="12.760960003"><ele>232</ele><time>2020-09-20T07:16:05Z</time></trkpt>
<trkpt lat="42.578623993" lon="12.760937959"><ele>233</ele><time>2020-09-20T07:16:06Z</time></trkpt>
<trkpt lat="42.578593986" lon="12.760923961"><ele>233</ele><time>2020-09-20T07:16:07Z</time></trkpt>
<trkpt lat="42.578561967" lon="12.76091801"><ele>234</ele><time>2020-09-20T07:16:08Z</time></trkpt>
<trkpt lat="42.578528021" lon="12.760919016"><ele>235</ele><time>2020-09-20T07:16:09Z</time></trkpt>
<trkpt lat="42.578494996" lon="12.760926979"><ele>235</ele><time>2020-09-20T07:16:10Z</time></trkpt>
<trkpt lat="42.578461971" lon="12.760938965"><ele>235</ele><time>2020-09-20T07:16:11Z</time></trkpt>
<trkpt lat="42.578430036" lon="12.760952041"><ele>236</ele><time>2020-09-20T07:16:12Z</time></trkpt>
<trkpt lat="42.578400029" lon="12.760964027"><ele>236</ele><time>2020-09-20T07:16:13Z</time></trkpt>
<trkpt lat="42.578372033" lon="12.760976013"><ele>236</ele><time>2020-09-20T07:16:14Z</time></trkpt>
<trkpt lat="42.578344038" lon="12.760986993"><ele>237</ele><time>2020-09-20T07:16:15Z</time></trkpt>
<trkpt lat="42.578316964" lon="12.760998979"><ele>237</ele><time>2020-09-20T07:16:16Z</time></trkpt>
<trkpt lat="42.57829098" lon="12.761010965"><ele>237</ele><time>2020-09-20T07:16:17Z</time></trkpt>
<trkpt lat="42.578263991" lon="12.761024041"><ele>237</ele><time>2020-09-20T07:16:18Z</time></trkpt>
<trkpt lat="42.578237001" lon="12.761038961"><ele>237</ele><time>2020-09-20T07:16:19Z</time></trkpt>
<trkpt lat="42.578209005" lon="12.76105497"><ele>236</ele><time>2020-09-20T07:16:20Z</time></trkpt>
<trkpt lat="42.578178998" lon="12.761072991"><ele>236</ele><time>2020-09-20T07:16:21Z</time></trkpt>
<trkpt lat="42.578147985" lon="12.761093024"><ele>236</ele><time>2020-09-20T07:16:22Z</time></trkpt>
<trkpt lat="42.578115966" lon="12.761115991"><ele>236</ele><time>2020-09-20T07:16:23Z</time></trkpt>
<trkpt lat="42.578083025" lon="12.761140969"><ele>236</ele><time>2020-09-20T07:16:24Z</time></trkpt>
<trkpt lat="42.578051006" lon="12.761167958"><ele>235</ele><time>2020-09-20T07:16:25Z</time></trkpt>
<trkpt lat="42.578017982" lon="12.761197966"><ele>235</ele><time>2020-09-20T07:16:26Z</time></trkpt>
<trkpt lat="42.577986969" lon="12.761228979"><ele>235</ele><time>2020-09-20T07:16:27Z</time></trkpt>
<trkpt lat="42.577956961" lon="12.761262003"><ele>234</ele><time>2020-09-20T07:16:28Z</time></trkpt>
<trkpt lat="42.577928966" lon="12.761296034"><ele>234</ele><time>2020-09-20T07:16:29Z</time></trkpt>
<trkpt lat="42.577902982" lon="12.761332998"><ele>233</ele><time>2020-09-20T07:16:30Z</time></trkpt>
<trkpt lat="42.57787901" lon="12.761369962"><ele>232</ele><time>2020-09-20T07:16:31Z</time></trkpt>
<trkpt lat="42.577857971" lon="12.761408016"><ele>232</ele><time>2020-09-20T07:16:32Z</time></trkpt>
<trkpt lat="42.577837016" lon="12.761446992"><ele>231</ele><time>2020-09-20T07:16:33Z</time></trkpt>
<trkpt lat="42.57781799" lon="12.761485968"><ele>230</ele><time>2020-09-20T07:16:34Z</time></trkpt>
<trkpt lat="42.577798963" lon="12.761524022"><ele>230</ele><time>2020-09-20T07:16:35Z</time></trkpt>
<trkpt lat="42.577781025" lon="12.761561992"><ele>229</ele><time>2020-09-20T07:16:36Z</time></trkpt>
<trkpt lat="42.577761998" lon="12.761598034"><ele>228</ele><time>2020-09-20T07:16:37Z</time></trkpt>
<trkpt lat="42.577742971" lon="12.761632986"><ele>228</ele><time>2020-09-20T07:16:38Z</time></trkpt>
<trkpt lat="42.577723023" lon="12.761666011"><ele>227</ele><time>2020-09-20T07:16:39Z</time></trkpt>
<trkpt lat="42.577701984" lon="12.761697024"><ele>227</ele><time>2020-09-20T07:16:40Z</time></trkpt>
<trkpt lat="42.577679018" lon="12.761724014"><ele>227</ele><time>2020-09-20T07:16:41Z</time></trkpt>
<trkpt lat="42.577654961" lon="12.761748992"><ele>228</ele><time>2020-09-20T07:16:42Z</time></trkpt>
<trkpt lat="42.577627972" lon="12.761771036"><ele>228</ele><time>2020-09-20T07:16:43Z</time></trkpt>
<trkpt lat="42.577597965" lon="12.761787968"><ele>228</ele><time>2020-09-20T07:16:44Z</time></trkpt>
<trkpt lat="42.577565024" lon="12.76180096"><ele>228</ele><time>2020-09-20T07:16:45Z</time></trkpt>
<trkpt lat="42.577528981" lon="12.761810012"><ele>229</ele><time>2020-09-20T07:16:46Z</time></trkpt>
<trkpt lat="42.577409958" lon="12.761811018"><ele>230</ele><time>2020-09-20T07:16:49Z</time></trkpt>
<trkpt lat="42.577370983" lon="12.761803977"><ele>230</ele><time>2020-09-20T07:16:50Z</time></trkpt>
<trkpt lat="42.577334018" lon="12.761794003"><ele>230</ele><time>2020-09-20T07:16:51Z</time></trkpt>
<trkpt lat="42.577232011" lon="12.761755027"><ele>231</ele><time>2020-09-20T07:16:54Z</time></trkpt>
<trkpt lat="42.577200998" lon="12.761741029"><ele>231</ele><time>2020-09-20T07:16:55Z</time></trkpt>
<trkpt lat="42.577169985" lon="12.761726025"><ele>231</ele><time>2020-09-20T07:16:56Z</time></trkpt>
<trkpt lat="42.577140983" lon="12.761712028"><ele>232</ele><time>2020-09-20T07:16:57Z</time></trkpt>
<trkpt lat="42.577112988" lon="12.761697024"><ele>232</ele><time>2020-09-20T07:16:58Z</time></trkpt>
<trkpt lat="42.577084992" lon="12.761681015"><ele>232</ele><time>2020-09-20T07:16:59Z</time></trkpt>
<trkpt lat="42.577059008" lon="12.761665005"><ele>232</ele><time>2020-09-20T07:17:00Z</time></trkpt>
<trkpt lat="42.577033024" lon="12.76164799"><ele>232</ele><time>2020-09-20T07:17:01Z</time></trkpt>
<trkpt lat="42.57700704" lon="12.761629969"><ele>232</ele><time>2020-09-20T07:17:02Z</time></trkpt>
<trkpt lat="42.576982984" lon="12.76161002"><ele>232</ele><time>2020-09-20T07:17:03Z</time></trkpt>
<trkpt lat="42.576959012" lon="12.761588981"><ele>233</ele><time>2020-09-20T07:17:04Z</time></trkpt>
<trkpt lat="42.576936968" lon="12.761565009"><ele>233</ele><time>2020-09-20T07:17:05Z</time></trkpt>
<trkpt lat="42.576918025" lon="12.761537014"><ele>233</ele><time>2020-09-20T07:17:06Z</time></trkpt>
<trkpt lat="42.576901009" lon="12.761504995"><ele>233</ele><time>2020-09-20T07:17:07Z</time></trkpt>
<trkpt lat="42.576888017" lon="12.761467025"><ele>233</ele><time>2020-09-20T07:17:08Z</time></trkpt>
<trkpt lat="42.576877959" lon="12.761424026"><ele>233</ele><time>2020-09-20T07:17:09Z</time></trkpt>
<trkpt lat="42.57687402" lon="12.76137298"><ele>233</ele><time>2020-09-20T07:17:10Z</time></trkpt>
<trkpt lat="42.57687402" lon="12.761315983"><ele>233</ele><time>2020-09-20T07:17:11Z</time></trkpt>
<trkpt lat="42.576877037" lon="12.761254963"><ele>233</ele><time>2020-09-20T07:17:12Z</time></trkpt>
<trkpt lat="42.576880977" lon="12.761195032"><ele>233</ele><time>2020-09-20T07:17:13Z</time></trkpt>
<trkpt lat="42.576883994" lon="12.761139963"><ele>234</ele><time>2020-09-20T07:17:14Z</time></trkpt>
<trkpt lat="42.576883994" lon="12.761093024"><ele>234</ele><time>2020-09-20T07:17:15Z</time></trkpt>
<trkpt lat="42.576881982" lon="12.761052037"><ele>234</ele><time>2020-09-20T07:17:16Z</time></trkpt>
<trkpt lat="42.576862033" lon="12.760934019"><ele>233</ele><time>2020-09-20T07:17:19Z</time></trkpt>
<trkpt lat="42.576854993" lon="12.76089102"><ele>233</ele><time>2020-09-20T07:17:20Z</time></trkpt>
<trkpt lat="42.576849042" lon="12.760847015"><ele>233</ele><time>2020-09-20T07:17:21Z</time></trkpt>
<trkpt lat="42.576848036" lon="12.76080301"><ele>233</ele><time>2020-09-20T07:17:22Z</time></trkpt>
<trkpt lat="42.576852981" lon="12.760762023"><ele>233</ele><time>2020-09-20T07:17:23Z</time></trkpt>
<trkpt lat="42.576865973" lon="12.760722041"><ele>232</ele><time>2020-09-20T07:17:24Z</time></trkpt>
<trkpt lat="42.576882988" lon="12.760683987"><ele>232</ele><time>2020-09-20T07:17:25Z</time></trkpt>
<trkpt lat="42.576904027" lon="12.760648029"><ele>233</ele><time>2020-09-20T07:17:26Z</time></trkpt>
<trkpt lat="42.576925987" lon="12.760610981"><ele>233</ele><time>2020-09-20T07:17:27Z</time></trkpt>
<trkpt lat="42.57694602" lon="12.760574017"><ele>233</ele><time>2020-09-20T07:17:28Z</time></trkpt>
<trkpt lat="42.576964963" lon="12.760535041"><ele>233</ele><time>2020-09-20T07:17:29Z</time></trkpt>
<trkpt lat="42.576981978" lon="12.760494975"><ele>232</ele><time>2020-09-20T07:17:30Z</time></trkpt>
<trkpt lat="42.576996982" lon="12.760453988"><ele>232</ele><time>2020-09-20T07:17:31Z</time></trkpt>
<trkpt lat="42.577011986" lon="12.760411995"><ele>232</ele><time>2020-09-20T07:17:32Z</time></trkpt>
<trkpt lat="42.577023972" lon="12.760368995"><ele>232</ele><time>2020-09-20T07:17:33Z</time></trkpt>
<trkpt lat="42.577036042" lon="12.760323985"><ele>232</ele><time>2020-09-20T07:17:34Z</time></trkpt>
<trkpt lat="42.577047022" lon="12.760276962"><ele>231</ele><time>2020-09-20T07:17:35Z</time></trkpt>
<trkpt lat="42.577056997" lon="12.760230023"><ele>231</ele><time>2020-09-20T07:17:36Z</time></trkpt>
<trkpt lat="42.577066971" lon="12.760181995"><ele>230</ele><time>2020-09-20T07:17:37Z</time></trkpt>
<trkpt lat="42.577078035" lon="12.760133967"><ele>230</ele><time>2020-09-20T07:17:38Z</time></trkpt>
<trkpt lat="42.577091027" lon="12.760086022"><ele>230</ele><time>2020-09-20T07:17:39Z</time></trkpt>
<trkpt lat="42.577107036" lon="12.760041011"><ele>229</ele><time>2020-09-20T07:17:40Z</time></trkpt>
<trkpt lat="42.577124974" lon="12.759997007"><ele>229</ele><time>2020-09-20T07:17:41Z</time></trkpt>
<trkpt lat="42.577145007" lon="12.759955013"><ele>229</ele><time>2020-09-20T07:17:42Z</time></trkpt>
<trkpt lat="42.577165961" lon="12.759914026"><ele>229</ele><time>2020-09-20T07:17:43Z</time></trkpt>
<trkpt lat="42.577185994" lon="12.759874966"><ele>229</ele><time>2020-09-20T07:17:44Z</time></trkpt>
<trkpt lat="42.577205021" lon="12.759836996"><ele>229</ele><time>2020-09-20T07:17:45Z</time></trkpt>
<trkpt lat="42.577222036" lon="12.759800032"><ele>229</ele><time>2020-09-20T07:17:46Z</time></trkpt>
<trkpt lat="42.57725196" lon="12.75968696"><ele>228</ele><time>2020-09-20T07:17:49Z</time></trkpt>
<trkpt lat="42.577256989" lon="12.759647984"><ele>228</ele><time>2020-09-20T07:17:50Z</time></trkpt>
<trkpt lat="42.577261012" lon="12.759608002"><ele>228</ele><time>2020-09-20T07:17:51Z</time></trkpt>
<trkpt lat="42.577265035" lon="12.759566009"><ele>227</ele><time>2020-09-20T07:17:52Z</time></trkpt>
<trkpt lat="42.577270987" lon="12.75952301"><ele>227</ele><time>2020-09-20T07:17:53Z</time></trkpt>
<trkpt lat="42.577278027" lon="12.759480011"><ele>227</ele><time>2020-09-20T07:17:54Z</time></trkpt>
<trkpt lat="42.577305017" lon="12.75934699"><ele>226</ele><time>2020-09-20T07:17:57Z</time></trkpt>
<trkpt lat="42.577315997" lon="12.759302985"><ele>225</ele><time>2020-09-20T07:17:58Z</time></trkpt>
<trkpt lat="42.577329995" lon="12.75925898"><ele>225</ele><time>2020-09-20T07:17:59Z</time></trkpt>
<trkpt lat="42.577344999" lon="12.759215981"><ele>225</ele><time>2020-09-20T07:18:00Z</time></trkpt>
<trkpt lat="42.577362014" lon="12.759173987"><ele>224</ele><time>2020-09-20T07:18:01Z</time></trkpt>
<trkpt lat="42.577381041" lon="12.759133"><ele>224</ele><time>2020-09-20T07:18:02Z</time></trkpt>
<trkpt lat="42.57740099" lon="12.759094024"><ele>224</ele><time>2020-09-20T07:18:03Z</time></trkpt>
<trkpt lat="42.577421023" lon="12.75905597"><ele>224</ele><time>2020-09-20T07:18:04Z</time></trkpt>
<trkpt lat="42.577440972" lon="12.759020012"><ele>224</ele><time>2020-09-20T07:18:05Z</time></trkpt>
<trkpt lat="42.577461004" lon="12.758984976"><ele>224</ele><time>2020-09-20T07:18:06Z</time></trkpt>
<trkpt lat="42.577480031" lon="12.758949017"><ele>224</ele><time>2020-09-20T07:18:07Z</time></trkpt>
<trkpt lat="42.577498974" lon="12.758911969"><ele>224</ele><time>2020-09-20T07:18:08Z</time></trkpt>
<trkpt lat="42.57751599" lon="12.758871987"><ele>225</ele><time>2020-09-20T07:18:09Z</time></trkpt>
<trkpt lat="42.577533005" lon="12.758831"><ele>225</ele><time>2020-09-20T07:18:10Z</time></trkpt>
<trkpt lat="42.577581033" lon="12.758698985"><ele>226</ele><time>2020-09-20T07:18:13Z</time></trkpt>
<trkpt lat="42.577596037" lon="12.75865498"><ele>226</ele><time>2020-09-20T07:18:14Z</time></trkpt>
<trkpt lat="42.577610034" lon="12.758611981"><ele>226</ele><time>2020-09-20T07:18:15Z</time></trkpt>
<trkpt lat="42.577625038" lon="12.758568982"><ele>227</ele><time>2020-09-20T07:18:16Z</time></trkpt>
<trkpt lat="42.577639036" lon="12.758529"><ele>227</ele><time>2020-09-20T07:18:17Z</time></trkpt>
<trkpt lat="42.577653034" lon="12.758490024"><ele>227</ele><time>2020-09-20T07:18:18Z</time></trkpt>
<trkpt lat="42.577667031" lon="12.75845197"><ele>227</ele><time>2020-09-20T07:18:19Z</time></trkpt>
<trkpt lat="42.577681029" lon="12.758414"><ele>227</ele><time>2020-09-20T07:18:20Z</time></trkpt>
<trkpt lat="42.577695027" lon="12.758378042"><ele>227</ele><time>2020-09-20T07:18:21Z</time></trkpt>
<trkpt lat="42.577708019" lon="12.758340994"><ele>227</ele><time>2020-09-20T07:18:22Z</time></trkpt>
<trkpt lat="42.577721011" lon="12.758303024"><ele>227</ele><time>2020-09-20T07:18:23Z</time></trkpt>
<trkpt lat="42.577734003" lon="12.75826497"><ele>227</ele><time>2020-09-20T07:18:24Z</time></trkpt>
<trkpt lat="42.577745989" lon="12.758225994"><ele>227</ele><time>2020-09-20T07:18:25Z</time></trkpt>
<trkpt lat="42.577757975" lon="12.758185007"><ele>227</ele><time>2020-09-20T07:18:26Z</time></trkpt>
<trkpt lat="42.577769961" lon="12.758144019"><ele>226</ele><time>2020-09-20T07:18:27Z</time></trkpt>
<trkpt lat="42.577781025" lon="12.758102026"><ele>226</ele><time>2020-09-20T07:18:28Z</time></trkpt>
<trkpt lat="42.577815978" lon="12.757974034"><ele>225</ele><time>2020-09-20T07:18:31Z</time></trkpt>
<trkpt lat="42.577827964" lon="12.757931035"><ele>225</ele><time>2020-09-20T07:18:32Z</time></trkpt>
<trkpt lat="42.57784104" lon="12.757889042"><ele>225</ele><time>2020-09-20T07:18:33Z</time></trkpt>
<trkpt lat="42.577853026" lon="12.757845959"><ele>225</ele><time>2020-09-20T07:18:34Z</time></trkpt>
<trkpt lat="42.577867024" lon="12.757804971"><ele>224</ele><time>2020-09-20T07:18:35Z</time></trkpt>
<trkpt lat="42.577881021" lon="12.757763984"><ele>224</ele><time>2020-09-20T07:18:36Z</time></trkpt>
<trkpt lat="42.577896025" lon="12.757722996"><ele>224</ele><time>2020-09-20T07:18:37Z</time></trkpt>
<trkpt lat="42.577911029" lon="12.75768402"><ele>223</ele><time>2020-09-20T07:18:38Z</time></trkpt>
<trkpt lat="42.57792796" lon="12.757645966"><ele>223</ele><time>2020-09-20T07:18:39Z</time></trkpt>
<trkpt lat="42.577945981" lon="12.757610008"><ele>223</ele><time>2020-09-20T07:18:40Z</time></trkpt>
<trkpt lat="42.577965008" lon="12.757574972"><ele>222</ele><time>2020-09-20T07:18:41Z</time></trkpt>
<trkpt lat="42.577985041" lon="12.757542031"><ele>222</ele><time>2020-09-20T07:18:42Z</time></trkpt>
<trkpt lat="42.578005996" lon="12.757510012"><ele>222</ele><time>2020-09-20T07:18:43Z</time></trkpt>
<trkpt lat="42.57802804" lon="12.757480005"><ele>222</ele><time>2020-09-20T07:18:44Z</time></trkpt>
<trkpt lat="42.578051006" lon="12.757451003"><ele>222</ele><time>2020-09-20T07:18:45Z</time></trkpt>
<trkpt lat="42.578074979" lon="12.757424014"><ele>222</ele><time>2020-09-20T07:18:46Z</time></trkpt>
<trkpt lat="42.578100041" lon="12.757397024"><ele>222</ele><time>2020-09-20T07:18:47Z</time></trkpt>
<trkpt lat="42.578125019" lon="12.757371962"><ele>222</ele><time>2020-09-20T07:18:48Z</time></trkpt>
<trkpt lat="42.578151003" lon="12.75734799"><ele>222</ele><time>2020-09-20T07:18:49Z</time></trkpt>
<trkpt lat="42.578176986" lon="12.757324018"><ele>222</ele><time>2020-09-20T07:18:50Z</time></trkpt>
<trkpt lat="42.57820297" lon="12.757303985"><ele>222</ele><time>2020-09-20T07:18:51Z</time></trkpt>
<trkpt lat="42.57822996" lon="12.75728697"><ele>222</ele><time>2020-09-20T07:18:52Z</time></trkpt>
<trkpt lat="42.578257034" lon="12.757276995"><ele>222</ele><time>2020-09-20T07:18:53Z</time></trkpt>
<trkpt lat="42.578284023" lon="12.757274983"><ele>222</ele><time>2020-09-20T07:18:54Z</time></trkpt>
<trkpt lat="42.578312019" lon="12.757278001"><ele>222</ele><time>2020-09-20T07:18:55Z</time></trkpt>
<trkpt lat="42.578339009" lon="12.757285964"><ele>222</ele><time>2020-09-20T07:18:56Z</time></trkpt>
<trkpt lat="42.578364993" lon="12.757295016"><ele>222</ele><time>2020-09-20T07:18:57Z</time></trkpt>
<trkpt lat="42.578389971" lon="12.757303985"><ele>223</ele><time>2020-09-20T07:18:58Z</time></trkpt>
<trkpt lat="42.578414027" lon="12.757313959"><ele>223</ele><time>2020-09-20T07:18:59Z</time></trkpt>
<trkpt lat="42.578436993" lon="12.757324018"><ele>223</ele><time>2020-09-20T07:19:00Z</time></trkpt>
<trkpt lat="42.578459037" lon="12.757332986"><ele>223</ele><time>2020-09-20T07:19:01Z</time></trkpt>
<trkpt lat="42.578479992" lon="12.757342961"><ele>223</ele><time>2020-09-20T07:19:02Z</time></trkpt>
<trkpt lat="42.578501031" lon="12.757354025"><ele>223</ele><time>2020-09-20T07:19:03Z</time></trkpt>
<trkpt lat="42.57852098" lon="12.757363999"><ele>223</ele><time>2020-09-20T07:19:04Z</time></trkpt>
<trkpt lat="42.578540007" lon="12.757375985"><ele>223</ele><time>2020-09-20T07:19:05Z</time></trkpt>
<trkpt lat="42.578558028" lon="12.757386966"><ele>223</ele><time>2020-09-20T07:19:06Z</time></trkpt>
<trkpt lat="42.578576971" lon="12.757400041"><ele>224</ele><time>2020-09-20T07:19:07Z</time></trkpt>
<trkpt lat="42.578594992" lon="12.757413033"><ele>224</ele><time>2020-09-20T07:19:08Z</time></trkpt>
<trkpt lat="42.578612007" lon="12.757426025"><ele>224</ele><time>2020-09-20T07:19:09Z</time></trkpt>
<trkpt lat="42.578629022" lon="12.757441029"><ele>224</ele><time>2020-09-20T07:19:10Z</time></trkpt>
<trkpt lat="42.578646038" lon="12.757455027"><ele>224</ele><time>2020-09-20T07:19:11Z</time></trkpt>
<trkpt lat="42.578662969" lon="12.757471036"><ele>224</ele><time>2020-09-20T07:19:12Z</time></trkpt>
<trkpt lat="42.578678979" lon="12.757486962"><ele>224</ele><time>2020-09-20T07:19:13Z</time></trkpt>
<trkpt lat="42.578695994" lon="12.757502971"><ele>224</ele><time>2020-09-20T07:19:14Z</time></trkpt>
<trkpt lat="42.578713009" lon="12.757519986"><ele>225</ele><time>2020-09-20T07:19:15Z</time></trkpt>
<trkpt lat="42.57873103" lon="12.757537002"><ele>225</ele><time>2020-09-20T07:19:16Z</time></trkpt>
<trkpt lat="42.578748967" lon="12.757554017"><ele>226</ele><time>2020-09-20T07:19:17Z</time></trkpt>
<trkpt lat="42.578769" lon="12.757571032"><ele>226</ele><time>2020-09-20T07:19:18Z</time></trkpt>
<trkpt lat="42.578790961" lon="12.757587042"><ele>227</ele><time>2020-09-20T07:19:19Z</time></trkpt>
<trkpt lat="42.578815017" lon="12.757601961"><ele>227</ele><time>2020-09-20T07:19:20Z</time></trkpt>
<trkpt lat="42.578842007" lon="12.757615959"><ele>228</ele><time>2020-09-20T07:19:21Z</time></trkpt>
<trkpt lat="42.578871008" lon="12.757628029"><ele>228</ele><time>2020-09-20T07:19:22Z</time></trkpt>
<trkpt lat="42.578902021" lon="12.757634986"><ele>228</ele><time>2020-09-20T07:19:23Z</time></trkpt>
<trkpt lat="42.578932028" lon="12.757631969"><ele>228</ele><time>2020-09-20T07:19:24Z</time></trkpt>
<trkpt lat="42.578960024" lon="12.757615037"><ele>228</ele><time>2020-09-20T07:19:25Z</time></trkpt>
<trkpt lat="42.578986008" lon="12.757581007"><ele>227</ele><time>2020-09-20T07:19:26Z</time></trkpt>
<trkpt lat="42.579024984" lon="12.757477993"><ele>225</ele><time>2020-09-20T07:19:28Z</time></trkpt>
<trkpt lat="42.579038981" lon="12.757417979"><ele>225</ele><time>2020-09-20T07:19:29Z</time></trkpt>
<trkpt lat="42.57904904" lon="12.757357964"><ele>225</ele><time>2020-09-20T07:19:30Z</time></trkpt>
<trkpt lat="42.579055997" lon="12.757298034"><ele>225</ele><time>2020-09-20T07:19:31Z</time></trkpt>
<trkpt lat="42.579061026" lon="12.757240031"><ele>224</ele><time>2020-09-20T07:19:32Z</time></trkpt>
<trkpt lat="42.579065971" lon="12.75718404"><ele>224</ele><time>2020-09-20T07:19:33Z</time></trkpt>
<trkpt lat="42.579071" lon="12.757130982"><ele>224</ele><time>2020-09-20T07:19:34Z</time></trkpt>
<trkpt lat="42.579077035" lon="12.757081026"><ele>224</ele><time>2020-09-20T07:19:35Z</time></trkpt>
<trkpt lat="42.579083992" lon="12.757034004"><ele>224</ele><time>2020-09-20T07:19:36Z</time></trkpt>
<trkpt lat="42.57909799" lon="12.756943982"><ele>223</ele><time>2020-09-20T07:19:38Z</time></trkpt>
<trkpt lat="42.579106037" lon="12.756900983"><ele>223</ele><time>2020-09-20T07:19:39Z</time></trkpt>
<trkpt lat="42.579113999" lon="12.756857984"><ele>223</ele><time>2020-09-20T07:19:40Z</time></trkpt>
<trkpt lat="42.579122968" lon="12.756814985"><ele>223</ele><time>2020-09-20T07:19:41Z</time></trkpt>
<trkpt lat="42.579134032" lon="12.756772991"><ele>222</ele><time>2020-09-20T07:19:42Z</time></trkpt>
<trkpt lat="42.57914803" lon="12.756729992"><ele>222</ele><time>2020-09-20T07:19:43Z</time></trkpt>
<trkpt lat="42.579164039" lon="12.756687999"><ele>222</ele><time>2020-09-20T07:19:44Z</time></trkpt>
<trkpt lat="42.579180971" lon="12.756645"><ele>222</ele><time>2020-09-20T07:19:45Z</time></trkpt>
<trkpt lat="42.579199998" lon="12.756604012"><ele>222</ele><time>2020-09-20T07:19:46Z</time></trkpt>
<trkpt lat="42.579219025" lon="12.756563025"><ele>222</ele><time>2020-09-20T07:19:47Z</time></trkpt>
<trkpt lat="42.579239979" lon="12.756526982"><ele>222</ele><time>2020-09-20T07:19:48Z</time></trkpt>
<trkpt lat="42.579261018" lon="12.756500999"><ele>222</ele><time>2020-09-20T07:19:49Z</time></trkpt>
<trkpt lat="42.579282979" lon="12.756488007"><ele>222</ele><time>2020-09-20T07:19:50Z</time></trkpt>
<trkpt lat="42.579307035" lon="12.756493036"><ele>222</ele><time>2020-09-20T07:19:51Z</time></trkpt>
<trkpt lat="42.579331007" lon="12.756511979"><ele>222</ele><time>2020-09-20T07:19:52Z</time></trkpt>
<trkpt lat="42.579354979" lon="12.756539974"><ele>222</ele><time>2020-09-20T07:19:53Z</time></trkpt>
<trkpt lat="42.579378029" lon="12.756574005"><ele>222</ele><time>2020-09-20T07:19:54Z</time></trkpt>
<trkpt lat="42.579419017" lon="12.756647011"><ele>222</ele><time>2020-09-20T07:19:56Z</time></trkpt>
<trkpt lat="42.579437038" lon="12.756683975"><ele>222</ele><time>2020-09-20T07:19:57Z</time></trkpt>
<trkpt lat="42.579453969" lon="12.756723035"><ele>223</ele><time>2020-09-20T07:19:58Z</time></trkpt>
<trkpt lat="42.579468973" lon="12.756761005"><ele>223</ele><time>2020-09-20T07:19:59Z</time></trkpt>
<trkpt lat="42.579484982" lon="12.756799981"><ele>223</ele><time>2020-09-20T07:20:00Z</time></trkpt>
<trkpt lat="42.57949898" lon="12.756839963"><ele>223</ele><time>2020-09-20T07:20:01Z</time></trkpt>
<trkpt lat="42.579512978" lon="12.756879022"><ele>223</ele><time>2020-09-20T07:20:02Z</time></trkpt>
<trkpt lat="42.579526976" lon="12.756919004"><ele>223</ele><time>2020-09-20T07:20:03Z</time></trkpt>
<trkpt lat="42.579540974" lon="12.75695798"><ele>223</ele><time>2020-09-20T07:20:04Z</time></trkpt>
<trkpt lat="42.579554971" lon="12.756997962"><ele>224</ele><time>2020-09-20T07:20:05Z</time></trkpt>
<trkpt lat="42.579567963" lon="12.757037021"><ele>224</ele><time>2020-09-20T07:20:06Z</time></trkpt>
<trkpt lat="42.579581961" lon="12.757075997"><ele>224</ele><time>2020-09-20T07:20:07Z</time></trkpt>
<trkpt lat="42.579595959" lon="12.757114973"><ele>224</ele><time>2020-09-20T07:20:08Z</time></trkpt>
<trkpt lat="42.579609035" lon="12.757153027"><ele>224</ele><time>2020-09-20T07:20:09Z</time></trkpt>
<trkpt lat="42.579623032" lon="12.757192003"><ele>224</ele><time>2020-09-20T07:20:10Z</time></trkpt>
<trkpt lat="42.579636024" lon="12.757229973"><ele>224</ele><time>2020-09-20T07:20:11Z</time></trkpt>
<trkpt lat="42.579650022" lon="12.757267021"><ele>224</ele><time>2020-09-20T07:20:12Z</time></trkpt>
<trkpt lat="42.57966402" lon="12.757304991"><ele>224</ele><time>2020-09-20T07:20:13Z</time></trkpt>
<trkpt lat="42.579678018" lon="12.757341033"><ele>224</ele><time>2020-09-20T07:20:14Z</time></trkpt>
<trkpt lat="42.579692015" lon="12.757376991"><ele>224</ele><time>2020-09-20T07:20:15Z</time></trkpt>
<trkpt lat="42.579707019" lon="12.757413033"><ele>225</ele><time>2020-09-20T07:20:16Z</time></trkpt>
<trkpt lat="42.579721017" lon="12.757447986"><ele>225</ele><time>2020-09-20T07:20:17Z</time></trkpt>
<trkpt lat="42.57973602" lon="12.757482016"><ele>225</ele><time>2020-09-20T07:20:18Z</time></trkpt>
<trkpt lat="42.579751024" lon="12.757515963"><ele>225</ele><time>2020-09-20T07:20:19Z</time></trkpt>
<trkpt lat="42.579767033" lon="12.757547982"><ele>225</ele><time>2020-09-20T07:20:20Z</time></trkpt>
<trkpt lat="42.579782959" lon="12.757581007"><ele>226</ele><time>2020-09-20T07:20:21Z</time></trkpt>
<trkpt lat="42.579798969" lon="12.75761202"><ele>226</ele><time>2020-09-20T07:20:22Z</time></trkpt>
<trkpt lat="42.579814978" lon="12.757643033"><ele>226</ele><time>2020-09-20T07:20:23Z</time></trkpt>
<trkpt lat="42.579830987" lon="12.757673962"><ele>227</ele><time>2020-09-20T07:20:24Z</time></trkpt>
<trkpt lat="42.579848003" lon="12.757703969"><ele>227</ele><time>2020-09-20T07:20:25Z</time></trkpt>
<trkpt lat="42.579864012" lon="12.757733976"><ele>227</ele><time>2020-09-20T07:20:26Z</time></trkpt>
<trkpt lat="42.579881027" lon="12.757763984"><ele>227</ele><time>2020-09-20T07:20:27Z</time></trkpt>
<trkpt lat="42.579897959" lon="12.757792985"><ele>227</ele><time>2020-09-20T07:20:28Z</time></trkpt>
<trkpt lat="42.579914974" lon="12.757822992"><ele>228</ele><time>2020-09-20T07:20:29Z</time></trkpt>
<trkpt lat="42.579931989" lon="12.757852999"><ele>228</ele><time>2020-09-20T07:20:30Z</time></trkpt>
<trkpt lat="42.579982029" lon="12.757943021"><ele>228</ele><time>2020-09-20T07:20:33Z</time></trkpt>
<trkpt lat="42.579998039" lon="12.757973028"><ele>228</ele><time>2020-09-20T07:20:34Z</time></trkpt>
<trkpt lat="42.58001497" lon="12.758004041"><ele>228</ele><time>2020-09-20T07:20:35Z</time></trkpt>
<trkpt lat="42.58003098" lon="12.758035976"><ele>228</ele><time>2020-09-20T07:20:36Z</time></trkpt>
<trkpt lat="42.580045983" lon="12.758067995"><ele>229</ele><time>2020-09-20T07:20:37Z</time></trkpt>
<trkpt lat="42.580061993" lon="12.758100014"><ele>229</ele><time>2020-09-20T07:20:38Z</time></trkpt>
<trkpt lat="42.580076996" lon="12.758133039"><ele>229</ele><time>2020-09-20T07:20:39Z</time></trkpt>
<trkpt lat="42.580090994" lon="12.75816598"><ele>229</ele><time>2020-09-20T07:20:40Z</time></trkpt>
<trkpt lat="42.580104992" lon="12.758199004"><ele>229</ele><time>2020-09-20T07:20:41Z</time></trkpt>
<trkpt lat="42.58011899" lon="12.758232029"><ele>229</ele><time>2020-09-20T07:20:42Z</time></trkpt>
<trkpt lat="42.580130976" lon="12.758265976"><ele>229</ele><time>2020-09-20T07:20:43Z</time></trkpt>
<trkpt lat="42.580142962" lon="12.758299001"><ele>230</ele><time>2020-09-20T07:20:44Z</time></trkpt>
<trkpt lat="42.580155032" lon="12.758332025"><ele>230</ele><time>2020-09-20T07:20:45Z</time></trkpt>
<trkpt lat="42.580165006" lon="12.758364966"><ele>230</ele><time>2020-09-20T07:20:46Z</time></trkpt>
<trkpt lat="42.580172969" lon="12.758397991"><ele>230</ele><time>2020-09-20T07:20:47Z</time></trkpt>
<trkpt lat="42.58018001" lon="12.758431016"><ele>229</ele><time>2020-09-20T07:20:48Z</time></trkpt>
<trkpt lat="42.580185039" lon="12.758464962"><ele>229</ele><time>2020-09-20T07:20:49Z</time></trkpt>
<trkpt lat="42.580186967" lon="12.758498993"><ele>229</ele><time>2020-09-20T07:20:50Z</time></trkpt>
<trkpt lat="42.580186967" lon="12.758534029"><ele>229</ele><time>2020-09-20T07:20:51Z</time></trkpt>
<trkpt lat="42.580183027" lon="12.758569987"><ele>229</ele><time>2020-09-20T07:20:52Z</time></trkpt>
<trkpt lat="42.580175987" lon="12.75860603"><ele>229</ele><time>2020-09-20T07:20:53Z</time></trkpt>
<trkpt lat="42.580166012" lon="12.758644"><ele>229</ele><time>2020-09-20T07:20:54Z</time></trkpt>
<trkpt lat="42.580154026" lon="12.75868197"><ele>229</ele><time>2020-09-20T07:20:55Z</time></trkpt>
<trkpt lat="42.580139022" lon="12.758720024"><ele>229</ele><time>2020-09-20T07:20:56Z</time></trkpt>
<trkpt lat="42.580123013" lon="12.758758999"><ele>230</ele><time>2020-09-20T07:20:57Z</time></trkpt>
<trkpt lat="42.580104992" lon="12.758798981"><ele>230</ele><time>2020-09-20T07:20:58Z</time></trkpt>
<trkpt lat="42.580086971" lon="12.758838963"><ele>230</ele><time>2020-09-20T07:20:59Z</time></trkpt>
<trkpt lat="42.580068028" lon="12.758879028"><ele>230</ele><time>2020-09-20T07:21:00Z</time></trkpt>
<trkpt lat="42.580050007" lon="12.75891901"><ele>230</ele><time>2020-09-20T07:21:01Z</time></trkpt>
<trkpt lat="42.580031985" lon="12.758958992"><ele>230</ele><time>2020-09-20T07:21:02Z</time></trkpt>
<trkpt lat="42.58001497" lon="12.758998973"><ele>230</ele><time>2020-09-20T07:21:03Z</time></trkpt>
<trkpt lat="42.579998961" lon="12.759039039"><ele>230</ele><time>2020-09-20T07:21:04Z</time></trkpt>
<trkpt lat="42.579984963" lon="12.759078015"><ele>231</ele><time>2020-09-20T07:21:05Z</time></trkpt>
<trkpt lat="42.579973983" lon="12.759117996"><ele>231</ele><time>2020-09-20T07:21:06Z</time></trkpt>
<trkpt lat="42.579965014" lon="12.759156972"><ele>231</ele><time>2020-09-20T07:21:07Z</time></trkpt>
<trkpt lat="42.579958979" lon="12.759195026"><ele>231</ele><time>2020-09-20T07:21:08Z</time></trkpt>
<trkpt lat="42.579956967" lon="12.759232996"><ele>231</ele><time>2020-09-20T07:21:09Z</time></trkpt>
<trkpt lat="42.579959985" lon="12.759269038"><ele>231</ele><time>2020-09-20T07:21:10Z</time></trkpt>
<trkpt lat="42.579968031" lon="12.759304997"><ele>230</ele><time>2020-09-20T07:21:11Z</time></trkpt>
<trkpt lat="42.579982029" lon="12.759339027"><ele>229</ele><time>2020-09-20T07:21:12Z</time></trkpt>
<trkpt lat="42.580002984" lon="12.759370962"><ele>228</ele><time>2020-09-20T07:21:13Z</time></trkpt>
<trkpt lat="42.580031985" lon="12.759399964"><ele>227</ele><time>2020-09-20T07:21:14Z</time></trkpt>
<trkpt lat="42.580066016" lon="12.759425025"><ele>227</ele><time>2020-09-20T07:21:15Z</time></trkpt>
<trkpt lat="42.580103986" lon="12.759442963"><ele>226</ele><time>2020-09-20T07:21:16Z</time></trkpt>
<trkpt lat="42.58014204" lon="12.759450004"><ele>226</ele><time>2020-09-20T07:21:17Z</time></trkpt>
<trkpt lat="42.580245975" lon="12.759425025"><ele>226</ele><time>2020-09-20T07:21:20Z</time></trkpt>
<trkpt lat="42.580279" lon="12.75941899"><ele>226</ele><time>2020-09-20T07:21:21Z</time></trkpt>
<trkpt lat="42.580311019" lon="12.759422008"><ele>225</ele><time>2020-09-20T07:21:22Z</time></trkpt>
<trkpt lat="42.580342032" lon="12.759435"><ele>225</ele><time>2020-09-20T07:21:23Z</time></trkpt>
<trkpt lat="42.580430964" lon="12.759493003"><ele>224</ele><time>2020-09-20T07:21:26Z</time></trkpt>
<trkpt lat="42.58045896" lon="12.759513035"><ele>224</ele><time>2020-09-20T07:21:27Z</time></trkpt>
<trkpt lat="42.580487039" lon="12.759532984"><ele>224</ele><time>2020-09-20T07:21:28Z</time></trkpt>
<trkpt lat="42.580514029" lon="12.759554023"><ele>224</ele><time>2020-09-20T07:21:29Z</time></trkpt>
<trkpt lat="42.580540013" lon="12.759573972"><ele>223</ele><time>2020-09-20T07:21:30Z</time></trkpt>
<trkpt lat="42.580565996" lon="12.759594005"><ele>223</ele><time>2020-09-20T07:21:31Z</time></trkpt>
<trkpt lat="42.58059198" lon="12.759614959"><ele>223</ele><time>2020-09-20T07:21:32Z</time></trkpt>
<trkpt lat="42.580616958" lon="12.759635998"><ele>223</ele><time>2020-09-20T07:21:33Z</time></trkpt>
<trkpt lat="42.58064202" lon="12.759657037"><ele>223</ele><time>2020-09-20T07:21:34Z</time></trkpt>
<trkpt lat="42.580666998" lon="12.759678997"><ele>222</ele><time>2020-09-20T07:21:35Z</time></trkpt>
<trkpt lat="42.580716033" lon="12.759724008"><ele>222</ele><time>2020-09-20T07:21:37Z</time></trkpt>
<trkpt lat="42.580741011" lon="12.759746974"><ele>222</ele><time>2020-09-20T07:21:38Z</time></trkpt>
<trkpt lat="42.580765989" lon="12.75977103"><ele>222</ele><time>2020-09-20T07:21:39Z</time></trkpt>
<trkpt lat="42.580789961" lon="12.759796008"><ele>222</ele><time>2020-09-20T07:21:40Z</time></trkpt>
<trkpt lat="42.580815023" lon="12.759821992"><ele>222</ele><time>2020-09-20T07:21:41Z</time></trkpt>
<trkpt lat="42.580840001" lon="12.759848982"><ele>221</ele><time>2020-09-20T07:21:42Z</time></trkpt>
<trkpt lat="42.580864979" lon="12.759876978"><ele>221</ele><time>2020-09-20T07:21:43Z</time></trkpt>
<trkpt lat="42.580890963" lon="12.759904973"><ele>221</ele><time>2020-09-20T07:21:44Z</time></trkpt>
<trkpt lat="42.580916025" lon="12.759933975"><ele>221</ele><time>2020-09-20T07:21:45Z</time></trkpt>
<trkpt lat="42.580942009" lon="12.75996197"><ele>221</ele><time>2020-09-20T07:21:46Z</time></trkpt>
<trkpt lat="42.580966987" lon="12.759990972"><ele>221</ele><time>2020-09-20T07:21:47Z</time></trkpt>
<trkpt lat="42.580992971" lon="12.760019973"><ele>221</ele><time>2020-09-20T07:21:48Z</time></trkpt>
<trkpt lat="42.58107" lon="12.76010396"><ele>221</ele><time>2020-09-20T07:21:51Z</time></trkpt>
<trkpt lat="42.581094978" lon="12.760131033"><ele>221</ele><time>2020-09-20T07:21:52Z</time></trkpt>
<trkpt lat="42.581119034" lon="12.760158023"><ele>221</ele><time>2020-09-20T07:21:53Z</time></trkpt>
<trkpt lat="42.581143007" lon="12.760186018"><ele>221</ele><time>2020-09-20T07:21:54Z</time></trkpt>
<trkpt lat="42.581165973" lon="12.760214014"><ele>221</ele><time>2020-09-20T07:21:55Z</time></trkpt>
<trkpt lat="42.581188018" lon="12.760243015"><ele>221</ele><time>2020-09-20T07:21:56Z</time></trkpt>
<trkpt lat="42.581207966" lon="12.760273023"><ele>221</ele><time>2020-09-20T07:21:57Z</time></trkpt>
<trkpt lat="42.581225988" lon="12.760305041"><ele>221</ele><time>2020-09-20T07:21:58Z</time></trkpt>
<trkpt lat="42.581243003" lon="12.760337982"><ele>221</ele><time>2020-09-20T07:21:59Z</time></trkpt>
<trkpt lat="42.581258006" lon="12.760374025"><ele>221</ele><time>2020-09-20T07:22:00Z</time></trkpt>
<trkpt lat="42.581272004" lon="12.760409983"><ele>221</ele><time>2020-09-20T07:22:01Z</time></trkpt>
<trkpt lat="42.58128399" lon="12.760448037"><ele>221</ele><time>2020-09-20T07:22:02Z</time></trkpt>
<trkpt lat="42.581294971" lon="12.760488018"><ele>221</ele><time>2020-09-20T07:22:03Z</time></trkpt>
<trkpt lat="42.581304023" lon="12.760528"><ele>221</ele><time>2020-09-20T07:22:04Z</time></trkpt>
<trkpt lat="42.581311986" lon="12.760568988"><ele>221</ele><time>2020-09-20T07:22:05Z</time></trkpt>
<trkpt lat="42.581319027" lon="12.760610981"><ele>221</ele><time>2020-09-20T07:22:06Z</time></trkpt>
<trkpt lat="42.581325984" lon="12.76065398"><ele>221</ele><time>2020-09-20T07:22:07Z</time></trkpt>
<trkpt lat="42.581331013" lon="12.760696979"><ele>221</ele><time>2020-09-20T07:22:08Z</time></trkpt>
<trkpt lat="42.581335958" lon="12.760739978"><ele>221</ele><time>2020-09-20T07:22:09Z</time></trkpt>
<trkpt lat="42.581339981" lon="12.760783983"><ele>221</ele><time>2020-09-20T07:22:10Z</time></trkpt>
<trkpt lat="42.581345011" lon="12.760826983"><ele>221</ele><time>2020-09-20T07:22:11Z</time></trkpt>
<trkpt lat="42.581349034" lon="12.760870988"><ele>221</ele><time>2020-09-20T07:22:12Z</time></trkpt>
<trkpt lat="42.581352973" lon="12.760914993"><ele>221</ele><time>2020-09-20T07:22:13Z</time></trkpt>
<trkpt lat="42.581356997" lon="12.760957992"><ele>221</ele><time>2020-09-20T07:22:14Z</time></trkpt>
<trkpt lat="42.58136102" lon="12.761000991"><ele>221</ele><time>2020-09-20T07:22:15Z</time></trkpt>
<trkpt lat="42.581365965" lon="12.76104399"><ele>221</ele><time>2020-09-20T07:22:16Z</time></trkpt>
<trkpt lat="42.581370994" lon="12.761086989"><ele>221</ele><time>2020-09-20T07:22:17Z</time></trkpt>
<trkpt lat="42.581385998" lon="12.761213975"><ele>221</ele><time>2020-09-20T07:22:20Z</time></trkpt>
<trkpt lat="42.581392033" lon="12.761255968"><ele>221</ele><time>2020-09-20T07:22:21Z</time></trkpt>
<trkpt lat="42.581396978" lon="12.761297962"><ele>221</ele><time>2020-09-20T07:22:22Z</time></trkpt>
<trkpt lat="42.581403013" lon="12.761339033"><ele>221</ele><time>2020-09-20T07:22:23Z</time></trkpt>
<trkpt lat="42.581407959" lon="12.761381026"><ele>221</ele><time>2020-09-20T07:22:24Z</time></trkpt>
<trkpt lat="42.581412988" lon="12.761422014"><ele>221</ele><time>2020-09-20T07:22:25Z</time></trkpt>
<trkpt lat="42.581418017" lon="12.761463001"><ele>222</ele><time>2020-09-20T07:22:26Z</time></trkpt>
<trkpt lat="42.581422962" lon="12.761503989"><ele>222</ele><time>2020-09-20T07:22:27Z</time></trkpt>
<trkpt lat="42.581427991" lon="12.761544976"><ele>222</ele><time>2020-09-20T07:22:28Z</time></trkpt>
<trkpt lat="42.581432015" lon="12.761585964"><ele>222</ele><time>2020-09-20T07:22:29Z</time></trkpt>
<trkpt lat="42.581436038" lon="12.761627035"><ele>222</ele><time>2020-09-20T07:22:30Z</time></trkpt>
<trkpt lat="42.581439978" lon="12.761667017"><ele>222</ele><time>2020-09-20T07:22:31Z</time></trkpt>
<trkpt lat="42.581442995" lon="12.761708004"><ele>222</ele><time>2020-09-20T07:22:32Z</time></trkpt>
<trkpt lat="42.581446012" lon="12.761747986"><ele>222</ele><time>2020-09-20T07:22:33Z</time></trkpt>
<trkpt lat="42.58144903" lon="12.761788974"><ele>222</ele><time>2020-09-20T07:22:34Z</time></trkpt>
<trkpt lat="42.581451042" lon="12.761829039"><ele>222</ele><time>2020-09-20T07:22:35Z</time></trkpt>
<trkpt lat="42.581453975" lon="12.761870027"><ele>222</ele><time>2020-09-20T07:22:36Z</time></trkpt>
<trkpt lat="42.581454981" lon="12.761910008"><ele>222</ele><time>2020-09-20T07:22:37Z</time></trkpt>
<trkpt lat="42.581456993" lon="12.761950996"><ele>222</ele><time>2020-09-20T07:22:38Z</time></trkpt>
<trkpt lat="42.581457999" lon="12.761990977"><ele>222</ele><time>2020-09-20T07:22:39Z</time></trkpt>
<trkpt lat="42.58146001" lon="12.762031965"><ele>222</ele><time>2020-09-20T07:22:40Z</time></trkpt>
<trkpt lat="42.581461016" lon="12.76207203"><ele>222</ele><time>2020-09-20T07:22:41Z</time></trkpt>
<trkpt lat="42.581462022" lon="12.762113018"><ele>222</ele><time>2020-09-20T07:22:42Z</time></trkpt>
<trkpt lat="42.581463028" lon="12.762154005"><ele>222</ele><time>2020-09-20T07:22:43Z</time></trkpt>
<trkpt lat="42.581463028" lon="12.762194993"><ele>222</ele><time>2020-09-20T07:22:44Z</time></trkpt>
<trkpt lat="42.581464034" lon="12.76223598"><ele>222</ele><time>2020-09-20T07:22:45Z</time></trkpt>
<trkpt lat="42.581465039" lon="12.762276968"><ele>222</ele><time>2020-09-20T07:22:46Z</time></trkpt>
<trkpt lat="42.581465961" lon="12.762318039"><ele>222</ele><time>2020-09-20T07:22:47Z</time></trkpt>
<trkpt lat="42.581466967" lon="12.762359027"><ele>222</ele><time>2020-09-20T07:22:48Z</time></trkpt>
<trkpt lat="42.581467973" lon="12.76240102"><ele>222</ele><time>2020-09-20T07:22:49Z</time></trkpt>
<trkpt lat="42.581468979" lon="12.762443013"><ele>222</ele><time>2020-09-20T07:22:50Z</time></trkpt>
<trkpt lat="42.581469985" lon="12.762485007"><ele>222</ele><time>2020-09-20T07:22:51Z</time></trkpt>
<trkpt lat="42.581470991" lon="12.762527"><ele>222</ele><time>2020-09-20T07:22:52Z</time></trkpt>
<trkpt lat="42.581471996" lon="12.762568993"><ele>222</ele><time>2020-09-20T07:22:53Z</time></trkpt>
<trkpt lat="42.581474008" lon="12.762610987"><ele>222</ele><time>2020-09-20T07:22:54Z</time></trkpt>
<trkpt lat="42.581475014" lon="12.762653986"><ele>222</ele><time>2020-09-20T07:22:55Z</time></trkpt>
<trkpt lat="42.581477026" lon="12.762695979"><ele>222</ele><time>2020-09-20T07:22:56Z</time></trkpt>
<trkpt lat="42.581479037" lon="12.762738978"><ele>222</ele><time>2020-09-20T07:22:57Z</time></trkpt>
<trkpt lat="42.581479959" lon="12.762781978"><ele>222</ele><time>2020-09-20T07:22:58Z</time></trkpt>
<trkpt lat="42.581481971" lon="12.762824977"><ele>222</ele><time>2020-09-20T07:22:59Z</time></trkpt>
<trkpt lat="42.581483983" lon="12.762868982"><ele>222</ele><time>2020-09-20T07:23:00Z</time></trkpt>
<trkpt lat="42.581485994" lon="12.762911981"><ele>222</ele><time>2020-09-20T07:23:01Z</time></trkpt>
<trkpt lat="42.581489012" lon="12.762955986"><ele>222</ele><time>2020-09-20T07:23:02Z</time></trkpt>
<trkpt lat="42.581491023" lon="12.762998985"><ele>222</ele><time>2020-09-20T07:23:03Z</time></trkpt>
<trkpt lat="42.581494041" lon="12.76304299"><ele>222</ele><time>2020-09-20T07:23:04Z</time></trkpt>
<trkpt lat="42.581495969" lon="12.763086995"><ele>222</ele><time>2020-09-20T07:23:05Z</time></trkpt>
<trkpt lat="42.581498986" lon="12.763132006"><ele>222</ele><time>2020-09-20T07:23:06Z</time></trkpt>
<trkpt lat="42.581502004" lon="12.763176011"><ele>222</ele><time>2020-09-20T07:23:07Z</time></trkpt>
<trkpt lat="42.581504015" lon="12.763220016"><ele>222</ele><time>2020-09-20T07:23:08Z</time></trkpt>
<trkpt lat="42.581506027" lon="12.763265027"><ele>222</ele><time>2020-09-20T07:23:09Z</time></trkpt>
<trkpt lat="42.581508039" lon="12.763309032"><ele>222</ele><time>2020-09-20T07:23:10Z</time></trkpt>
<trkpt lat="42.581509966" lon="12.763353959"><ele>222</ele><time>2020-09-20T07:23:11Z</time></trkpt>
<trkpt lat="42.581509966" lon="12.763397964"><ele>222</ele><time>2020-09-20T07:23:12Z</time></trkpt>
<trkpt lat="42.581510972" lon="12.763441969"><ele>222</ele><time>2020-09-20T07:23:13Z</time></trkpt>
<trkpt lat="42.581509966" lon="12.763485974"><ele>222</ele><time>2020-09-20T07:23:14Z</time></trkpt>
<trkpt lat="42.581508961" lon="12.763529979"><ele>222</ele><time>2020-09-20T07:23:15Z</time></trkpt>
<trkpt lat="42.581508039" lon="12.763573984"><ele>222</ele><time>2020-09-20T07:23:16Z</time></trkpt>
<trkpt lat="42.581507033" lon="12.763617989"><ele>222</ele><time>2020-09-20T07:23:17Z</time></trkpt>
<trkpt lat="42.581505021" lon="12.763660988"><ele>222</ele><time>2020-09-20T07:23:18Z</time></trkpt>
<trkpt lat="42.581503009" lon="12.763704993"><ele>222</ele><time>2020-09-20T07:23:19Z</time></trkpt>
<trkpt lat="42.581502004" lon="12.763747992"><ele>223</ele><time>2020-09-20T07:23:20Z</time></trkpt>
<trkpt lat="42.581499992" lon="12.763791997"><ele>223</ele><time>2020-09-20T07:23:21Z</time></trkpt>
<trkpt lat="42.581498986" lon="12.763834996"><ele>223</ele><time>2020-09-20T07:23:22Z</time></trkpt>
<trkpt lat="42.581496974" lon="12.763877995"><ele>223</ele><time>2020-09-20T07:23:23Z</time></trkpt>
<trkpt lat="42.581495969" lon="12.763919989"><ele>223</ele><time>2020-09-20T07:23:24Z</time></trkpt>
<trkpt lat="42.581494963" lon="12.763962988"><ele>223</ele><time>2020-09-20T07:23:25Z</time></trkpt>
<trkpt lat="42.581494041" lon="12.764004981"><ele>223</ele><time>2020-09-20T07:23:26Z</time></trkpt>
<trkpt lat="42.581493035" lon="12.764045969"><ele>223</ele><time>2020-09-20T07:23:27Z</time></trkpt>
<trkpt lat="42.581492029" lon="12.764087962"><ele>223</ele><time>2020-09-20T07:23:28Z</time></trkpt>
<trkpt lat="42.581491023" lon="12.764129033"><ele>223</ele><time>2020-09-20T07:23:29Z</time></trkpt>
<trkpt lat="42.581491023" lon="12.764169015"><ele>223</ele><time>2020-09-20T07:23:30Z</time></trkpt>
<trkpt lat="42.581490017" lon="12.764210002"><ele>223</ele><time>2020-09-20T07:23:31Z</time></trkpt>
<trkpt lat="42.581490017" lon="12.764248978"><ele>223</ele><time>2020-09-20T07:23:32Z</time></trkpt>
<trkpt lat="42.581490017" lon="12.764288038"><ele>223</ele><time>2020-09-20T07:23:33Z</time></trkpt>
<trkpt lat="42.581490017" lon="12.764327014"><ele>223</ele><time>2020-09-20T07:23:34Z</time></trkpt>
<trkpt lat="42.581490017" lon="12.764364984"><ele>223</ele><time>2020-09-20T07:23:35Z</time></trkpt>
<trkpt lat="42.581490017" lon="12.764403038"><ele>223</ele><time>2020-09-20T07:23:36Z</time></trkpt>
<trkpt lat="42.581490017" lon="12.764440002"><ele>223</ele><time>2020-09-20T07:23:37Z</time></trkpt>
<trkpt lat="42.581490017" lon="12.764476966"><ele>223</ele><time>2020-09-20T07:23:38Z</time></trkpt>
<trkpt lat="42.581490017" lon="12.76451502"><ele>223</ele><time>2020-09-20T07:23:39Z</time></trkpt>
<trkpt lat="42.581491023" lon="12.76455299"><ele>224</ele><time>2020-09-20T07:23:40Z</time></trkpt>
<trkpt lat="42.581492029" lon="12.764591966"><ele>224</ele><time>2020-09-20T07:23:41Z</time></trkpt>
<trkpt lat="42.581494041" lon="12.764633037"><ele>224</ele><time>2020-09-20T07:23:42Z</time></trkpt>
<trkpt lat="42.581495969" lon="12.764674025"><ele>224</ele><time>2020-09-20T07:23:43Z</time></trkpt>
<trkpt lat="42.58149798" lon="12.764716018"><ele>224</ele><time>2020-09-20T07:23:44Z</time></trkpt>
<trkpt lat="42.581500998" lon="12.764759017"><ele>224</ele><time>2020-09-20T07:23:45Z</time></trkpt>
<trkpt lat="42.581504015" lon="12.76480101"><ele>224</ele><time>2020-09-20T07:23:46Z</time></trkpt>
<trkpt lat="42.581507033" lon="12.76484401"><ele>224</ele><time>2020-09-20T07:23:47Z</time></trkpt>
<trkpt lat="42.581509966" lon="12.764887009"><ele>224</ele><time>2020-09-20T07:23:48Z</time></trkpt>
<trkpt lat="42.581512984" lon="12.764931014"><ele>224</ele><time>2020-09-20T07:23:49Z</time></trkpt>
<trkpt lat="42.581516001" lon="12.764974013"><ele>224</ele><time>2020-09-20T07:23:50Z</time></trkpt>
<trkpt lat="42.581519019" lon="12.765018018"><ele>224</ele><time>2020-09-20T07:23:51Z</time></trkpt>
<trkpt lat="42.581522036" lon="12.765061017"><ele>224</ele><time>2020-09-20T07:23:52Z</time></trkpt>
<trkpt lat="42.58152497" lon="12.765105022"><ele>224</ele><time>2020-09-20T07:23:53Z</time></trkpt>
<trkpt lat="42.581527987" lon="12.765148021"><ele>224</ele><time>2020-09-20T07:23:54Z</time></trkpt>
<trkpt lat="42.581529999" lon="12.765192026"><ele>225</ele><time>2020-09-20T07:23:55Z</time></trkpt>
<trkpt lat="42.581532011" lon="12.765236031"><ele>225</ele><time>2020-09-20T07:23:56Z</time></trkpt>
<trkpt lat="42.581534022" lon="12.76527903"><ele>225</ele><time>2020-09-20T07:23:57Z</time></trkpt>
<trkpt lat="42.581536034" lon="12.76532203"><ele>225</ele><time>2020-09-20T07:23:58Z</time></trkpt>
<trkpt lat="42.58153704" lon="12.765366035"><ele>225</ele><time>2020-09-20T07:23:59Z</time></trkpt>
<trkpt lat="42.581538968" lon="12.765409034"><ele>225</ele><time>2020-09-20T07:24:00Z</time></trkpt>
<trkpt lat="42.581539974" lon="12.765452033"><ele>225</ele><time>2020-09-20T07:24:01Z</time></trkpt>
<trkpt lat="42.581540979" lon="12.765494026"><ele>225</ele><time>2020-09-20T07:24:02Z</time></trkpt>
<trkpt lat="42.581541985" lon="12.765537025"><ele>225</ele><time>2020-09-20T07:24:03Z</time></trkpt>
<trkpt lat="42.581542991" lon="12.765579019"><ele>225</ele><time>2020-09-20T07:24:04Z</time></trkpt>
<trkpt lat="42.581543997" lon="12.765621012"><ele>226</ele><time>2020-09-20T07:24:05Z</time></trkpt>
<trkpt lat="42.581543997" lon="12.765663005"><ele>226</ele><time>2020-09-20T07:24:06Z</time></trkpt>
<trkpt lat="42.581545003" lon="12.765703993"><ele>226</ele><time>2020-09-20T07:24:07Z</time></trkpt>
<trkpt lat="42.581545003" lon="12.76574498"><ele>226</ele><time>2020-09-20T07:24:08Z</time></trkpt>
<trkpt lat="42.581545003" lon="12.765785968"><ele>226</ele><time>2020-09-20T07:24:09Z</time></trkpt>
<trkpt lat="42.581546009" lon="12.765826033"><ele>226</ele><time>2020-09-20T07:24:10Z</time></trkpt>
<trkpt lat="42.581546009" lon="12.765866015"><ele>226</ele><time>2020-09-20T07:24:11Z</time></trkpt>
<trkpt lat="42.581546009" lon="12.765905997"><ele>226</ele><time>2020-09-20T07:24:12Z</time></trkpt>
<trkpt lat="42.581546009" lon="12.765944973"><ele>226</ele><time>2020-09-20T07:24:13Z</time></trkpt>
<trkpt lat="42.581546009" lon="12.765984032"><ele>226</ele><time>2020-09-20T07:24:14Z</time></trkpt>
<trkpt lat="42.581546009" lon="12.766023008"><ele>227</ele><time>2020-09-20T07:24:15Z</time></trkpt>
<trkpt lat="42.581546009" lon="12.766061984"><ele>227</ele><time>2020-09-20T07:24:16Z</time></trkpt>
<trkpt lat="42.581546009" lon="12.766100038"><ele>227</ele><time>2020-09-20T07:24:17Z</time></trkpt>
<trkpt lat="42.581546009" lon="12.766138008"><ele>227</ele><time>2020-09-20T07:24:18Z</time></trkpt>
<trkpt lat="42.581546009" lon="12.766175978"><ele>227</ele><time>2020-09-20T07:24:19Z</time></trkpt>
<trkpt lat="42.581546009" lon="12.766214032"><ele>227</ele><time>2020-09-20T07:24:20Z</time></trkpt>
<trkpt lat="42.581546009" lon="12.766252002"><ele>227</ele><time>2020-09-20T07:24:21Z</time></trkpt>
<trkpt lat="42.581546009" lon="12.766289972"><ele>227</ele><time>2020-09-20T07:24:22Z</time></trkpt>
<trkpt lat="42.581546009" lon="12.766328026"><ele>227</ele><time>2020-09-20T07:24:23Z</time></trkpt>
<trkpt lat="42.581546009" lon="12.766365996"><ele>227</ele><time>2020-09-20T07:24:24Z</time></trkpt>
<trkpt lat="42.581546009" lon="12.766403966"><ele>228</ele><time>2020-09-20T07:24:25Z</time></trkpt>
<trkpt lat="42.581546009" lon="12.766442019"><ele>228</ele><time>2020-09-20T07:24:26Z</time></trkpt>
<trkpt lat="42.581546009" lon="12.76647999"><ele>228</ele><time>2020-09-20T07:24:27Z</time></trkpt>
<trkpt lat="42.581546009" lon="12.76651796"><ele>228</ele><time>2020-09-20T07:24:28Z</time></trkpt>
<trkpt lat="42.581547014" lon="12.766557019"><ele>228</ele><time>2020-09-20T07:24:29Z</time></trkpt>
<trkpt lat="42.581549026" lon="12.766595995"><ele>228</ele><time>2020-09-20T07:24:30Z</time></trkpt>
<trkpt lat="42.581550032" lon="12.766634971"><ele>228</ele><time>2020-09-20T07:24:31Z</time></trkpt>
<trkpt lat="42.581552966" lon="12.766675036"><ele>228</ele><time>2020-09-20T07:24:32Z</time></trkpt>
<trkpt lat="42.581555983" lon="12.766716024"><ele>228</ele><time>2020-09-20T07:24:33Z</time></trkpt>
<trkpt lat="42.581560006" lon="12.766757011"><ele>229</ele><time>2020-09-20T07:24:34Z</time></trkpt>
<trkpt lat="42.581565036" lon="12.766799005"><ele>229</ele><time>2020-09-20T07:24:35Z</time></trkpt>
<trkpt lat="42.581570987" lon="12.766840998"><ele>229</ele><time>2020-09-20T07:24:36Z</time></trkpt>
<trkpt lat="42.581577022" lon="12.766882991"><ele>229</ele><time>2020-09-20T07:24:37Z</time></trkpt>
<trkpt lat="42.581583979" lon="12.766925991"><ele>229</ele><time>2020-09-20T07:24:38Z</time></trkpt>
<trkpt lat="42.581590014" lon="12.766967984"><ele>230</ele><time>2020-09-20T07:24:39Z</time></trkpt>
<trkpt lat="42.581595965" lon="12.767009977"><ele>230</ele><time>2020-09-20T07:24:40Z</time></trkpt>
<trkpt lat="42.581602" lon="12.767050965"><ele>230</ele><time>2020-09-20T07:24:41Z</time></trkpt>
<trkpt lat="42.581607029" lon="12.767090024"><ele>230</ele><time>2020-09-20T07:24:42Z</time></trkpt>
<trkpt lat="42.581610968" lon="12.767129"><ele>230</ele><time>2020-09-20T07:24:43Z</time></trkpt>
<trkpt lat="42.581614992" lon="12.767164959"><ele>230</ele><time>2020-09-20T07:24:44Z</time></trkpt>
<trkpt lat="42.581620021" lon="12.767198989"><ele>230</ele><time>2020-09-20T07:24:45Z</time></trkpt>
<trkpt lat="42.581625972" lon="12.767231008"><ele>230</ele><time>2020-09-20T07:24:46Z</time></trkpt>
<trkpt lat="42.581635024" lon="12.767257998"><ele>230</ele><time>2020-09-20T07:24:47Z</time></trkpt>
<trkpt lat="42.581647011" lon="12.76728197"><ele>230</ele><time>2020-09-20T07:24:48Z</time></trkpt>
<trkpt lat="42.58166302" lon="12.767300997"><ele>230</ele><time>2020-09-20T07:24:49Z</time></trkpt>
<trkpt lat="42.581683975" lon="12.767314995"><ele>231</ele><time>2020-09-20T07:24:50Z</time></trkpt>
<trkpt lat="42.581710964" lon="12.767323041"><ele>231</ele><time>2020-09-20T07:24:51Z</time></trkpt>
<trkpt lat="42.581813978" lon="12.767328992"><ele>233</ele><time>2020-09-20T07:24:54Z</time></trkpt>
<trkpt lat="42.581853038" lon="12.767328992"><ele>234</ele><time>2020-09-20T07:24:55Z</time></trkpt>
<trkpt lat="42.581892014" lon="12.767331004"><ele>234</ele><time>2020-09-20T07:24:56Z</time></trkpt>
<trkpt lat="42.581929984" lon="12.767336033"><ele>235</ele><time>2020-09-20T07:24:57Z</time></trkpt>
<trkpt lat="42.581966026" lon="12.767345002"><ele>236</ele><time>2020-09-20T07:24:58Z</time></trkpt>
<trkpt lat="42.581998967" lon="12.767359"><ele>237</ele><time>2020-09-20T07:24:59Z</time></trkpt>
<trkpt lat="42.58202998" lon="12.767378027"><ele>237</ele><time>2020-09-20T07:25:00Z</time></trkpt>
<trkpt lat="42.582058981" lon="12.767400993"><ele>238</ele><time>2020-09-20T07:25:01Z</time></trkpt>
<trkpt lat="42.582086977" lon="12.767424965"><ele>239</ele><time>2020-09-20T07:25:02Z</time></trkpt>
<trkpt lat="42.582112961" lon="12.767450027"><ele>240</ele><time>2020-09-20T07:25:03Z</time></trkpt>
<trkpt lat="42.582139028" lon="12.767473999"><ele>240</ele><time>2020-09-20T07:25:04Z</time></trkpt>
<trkpt lat="42.582165012" lon="12.767497972"><ele>241</ele><time>2020-09-20T07:25:05Z</time></trkpt>
<trkpt lat="42.582190996" lon="12.767521022"><ele>242</ele><time>2020-09-20T07:25:06Z</time></trkpt>
<trkpt lat="42.58221698" lon="12.767543988"><ele>242</ele><time>2020-09-20T07:25:07Z</time></trkpt>
<trkpt lat="42.58224397" lon="12.767564021"><ele>242</ele><time>2020-09-20T07:25:08Z</time></trkpt>
<trkpt lat="42.582269032" lon="12.76758003"><ele>243</ele><time>2020-09-20T07:25:09Z</time></trkpt>
<trkpt lat="42.582291998" lon="12.767587993"><ele>243</ele><time>2020-09-20T07:25:10Z</time></trkpt>
<trkpt lat="42.582308007" lon="12.76758397"><ele>243</ele><time>2020-09-20T07:25:11Z</time></trkpt>
<trkpt lat="42.582322005" lon="12.767534014"><ele>244</ele><time>2020-09-20T07:25:13Z</time></trkpt>
<trkpt lat="42.582322005" lon="12.767496966"><ele>244</ele><time>2020-09-20T07:25:14Z</time></trkpt>
<trkpt lat="42.582318988" lon="12.767456984"><ele>244</ele><time>2020-09-20T07:25:15Z</time></trkpt>
<trkpt lat="42.582313959" lon="12.767417002"><ele>243</ele><time>2020-09-20T07:25:16Z</time></trkpt>
<trkpt lat="42.582309013" lon="12.767379032"><ele>242</ele><time>2020-09-20T07:25:17Z</time></trkpt>
<trkpt lat="42.582303984" lon="12.767341984"><ele>242</ele><time>2020-09-20T07:25:18Z</time></trkpt>
<trkpt lat="42.582299961" lon="12.767306026"><ele>241</ele><time>2020-09-20T07:25:19Z</time></trkpt>
<trkpt lat="42.582296021" lon="12.767268978"><ele>241</ele><time>2020-09-20T07:25:20Z</time></trkpt>
<trkpt lat="42.58229401" lon="12.76723302"><ele>240</ele><time>2020-09-20T07:25:21Z</time></trkpt>
<trkpt lat="42.58229401" lon="12.767195972"><ele>240</ele><time>2020-09-20T07:25:22Z</time></trkpt>
<trkpt lat="42.582296021" lon="12.767156996"><ele>239</ele><time>2020-09-20T07:25:23Z</time></trkpt>
<trkpt lat="42.582300967" lon="12.76711802"><ele>239</ele><time>2020-09-20T07:25:24Z</time></trkpt>
<trkpt lat="42.582309013" lon="12.767078038"><ele>238</ele><time>2020-09-20T07:25:25Z</time></trkpt>
<trkpt lat="42.582318988" lon="12.767035961"><ele>238</ele><time>2020-09-20T07:25:26Z</time></trkpt>
<trkpt lat="42.582329968" lon="12.766993968"><ele>237</ele><time>2020-09-20T07:25:27Z</time></trkpt>
<trkpt lat="42.58234296" lon="12.766951974"><ele>237</ele><time>2020-09-20T07:25:28Z</time></trkpt>
<trkpt lat="42.582356036" lon="12.766908975"><ele>237</ele><time>2020-09-20T07:25:29Z</time></trkpt>
<trkpt lat="42.582368022" lon="12.766865976"><ele>236</ele><time>2020-09-20T07:25:30Z</time></trkpt>
<trkpt lat="42.582380008" lon="12.766823983"><ele>236</ele><time>2020-09-20T07:25:31Z</time></trkpt>
<trkpt lat="42.582390988" lon="12.766780984"><ele>235</ele><time>2020-09-20T07:25:32Z</time></trkpt>
<trkpt lat="42.582401969" lon="12.766739996"><ele>234</ele><time>2020-09-20T07:25:33Z</time></trkpt>
<trkpt lat="42.582412027" lon="12.766699009"><ele>234</ele><time>2020-09-20T07:25:34Z</time></trkpt>
<trkpt lat="42.582422001" lon="12.766658021"><ele>233</ele><time>2020-09-20T07:25:35Z</time></trkpt>
<trkpt lat="42.582433987" lon="12.766618039"><ele>233</ele><time>2020-09-20T07:25:36Z</time></trkpt>
<trkpt lat="42.582445974" lon="12.76657898"><ele>233</ele><time>2020-09-20T07:25:37Z</time></trkpt>
<trkpt lat="42.582460977" lon="12.766540004"><ele>232</ele><time>2020-09-20T07:25:38Z</time></trkpt>
<trkpt lat="42.582476987" lon="12.76650304"><ele>232</ele><time>2020-09-20T07:25:39Z</time></trkpt>
<trkpt lat="42.582497019" lon="12.766465992"><ele>232</ele><time>2020-09-20T07:25:40Z</time></trkpt>
<trkpt lat="42.582519986" lon="12.766431039"><ele>232</ele><time>2020-09-20T07:25:41Z</time></trkpt>
<trkpt lat="42.582544964" lon="12.766396003"><ele>232</ele><time>2020-09-20T07:25:42Z</time></trkpt>
<trkpt lat="42.582572959" lon="12.766362978"><ele>231</ele><time>2020-09-20T07:25:43Z</time></trkpt>
<trkpt lat="42.582603972" lon="12.766331965"><ele>231</ele><time>2020-09-20T07:25:44Z</time></trkpt>
<trkpt lat="42.582634985" lon="12.766302964"><ele>231</ele><time>2020-09-20T07:25:45Z</time></trkpt>
<trkpt lat="42.582669016" lon="12.76627698"><ele>231</ele><time>2020-09-20T07:25:46Z</time></trkpt>
<trkpt lat="42.582702963" lon="12.766257031"><ele>231</ele><time>2020-09-20T07:25:47Z</time></trkpt>
<trkpt lat="42.582737999" lon="12.766243033"><ele>231</ele><time>2020-09-20T07:25:48Z</time></trkpt>
<trkpt lat="42.582774041" lon="12.766235992"><ele>231</ele><time>2020-09-20T07:25:49Z</time></trkpt>
<trkpt lat="42.58281" lon="12.766235992"><ele>232</ele><time>2020-09-20T07:25:50Z</time></trkpt>
<trkpt lat="42.582846042" lon="12.766240016"><ele>232</ele><time>2020-09-20T07:25:51Z</time></trkpt>
<trkpt lat="42.582955007" lon="12.766258959"><ele>233</ele><time>2020-09-20T07:25:54Z</time></trkpt>
<trkpt lat="42.582989959" lon="12.766261976"><ele>234</ele><time>2020-09-20T07:25:55Z</time></trkpt>
<trkpt lat="42.583024995" lon="12.766258959"><ele>234</ele><time>2020-09-20T07:25:56Z</time></trkpt>
<trkpt lat="42.583060032" lon="12.766250996"><ele>234</ele><time>2020-09-20T07:25:57Z</time></trkpt>
<trkpt lat="42.583092973" lon="12.766238004"><ele>234</ele><time>2020-09-20T07:25:58Z</time></trkpt>
<trkpt lat="42.583125997" lon="12.766225012"><ele>234</ele><time>2020-09-20T07:25:59Z</time></trkpt>
<trkpt lat="42.583158016" lon="12.766215038"><ele>234</ele><time>2020-09-20T07:26:00Z</time></trkpt>
<trkpt lat="42.583189029" lon="12.766210008"><ele>234</ele><time>2020-09-20T07:26:01Z</time></trkpt>
<trkpt lat="42.583249966" lon="12.766214032"><ele>235</ele><time>2020-09-20T07:26:03Z</time></trkpt>
<trkpt lat="42.583279973" lon="12.766220989"><ele>235</ele><time>2020-09-20T07:26:04Z</time></trkpt>
<trkpt lat="42.583308974" lon="12.766230041"><ele>235</ele><time>2020-09-20T07:26:05Z</time></trkpt>
<trkpt lat="42.583338981" lon="12.766241021"><ele>236</ele><time>2020-09-20T07:26:06Z</time></trkpt>
<trkpt lat="42.583367983" lon="12.766254013"><ele>236</ele><time>2020-09-20T07:26:07Z</time></trkpt>
<trkpt lat="42.583395978" lon="12.766268011"><ele>236</ele><time>2020-09-20T07:26:08Z</time></trkpt>
<trkpt lat="42.58342498" lon="12.766284021"><ele>236</ele><time>2020-09-20T07:26:09Z</time></trkpt>
<trkpt lat="42.58345197" lon="12.76630003"><ele>236</ele><time>2020-09-20T07:26:10Z</time></trkpt>
<trkpt lat="42.583479965" lon="12.766316961"><ele>236</ele><time>2020-09-20T07:26:11Z</time></trkpt>
<trkpt lat="42.583507039" lon="12.766334983"><ele>237</ele><time>2020-09-20T07:26:12Z</time></trkpt>
<trkpt lat="42.583533023" lon="12.766353004"><ele>237</ele><time>2020-09-20T07:26:13Z</time></trkpt>
<trkpt lat="42.583558001" lon="12.766371025"><ele>237</ele><time>2020-09-20T07:26:14Z</time></trkpt>
<trkpt lat="42.583582979" lon="12.766388962"><ele>237</ele><time>2020-09-20T07:26:15Z</time></trkpt>
<trkpt lat="42.583608041" lon="12.766407989"><ele>237</ele><time>2020-09-20T07:26:16Z</time></trkpt>
<trkpt lat="42.583632013" lon="12.76642601"><ele>237</ele><time>2020-09-20T07:26:17Z</time></trkpt>
<trkpt lat="42.583656991" lon="12.766444031"><ele>237</ele><time>2020-09-20T07:26:18Z</time></trkpt>
<trkpt lat="42.583681969" lon="12.766461968"><ele>238</ele><time>2020-09-20T07:26:19Z</time></trkpt>
<trkpt lat="42.583707031" lon="12.766478984"><ele>238</ele><time>2020-09-20T07:26:20Z</time></trkpt>
<trkpt lat="42.583733015" lon="12.766497005"><ele>238</ele><time>2020-09-20T07:26:21Z</time></trkpt>
<trkpt lat="42.583760004" lon="12.766513014"><ele>238</ele><time>2020-09-20T07:26:22Z</time></trkpt>
<trkpt lat="42.583786994" lon="12.766528018"><ele>238</ele><time>2020-09-20T07:26:23Z</time></trkpt>
<trkpt lat="42.583813984" lon="12.76654101"><ele>238</ele><time>2020-09-20T07:26:24Z</time></trkpt>
<trkpt lat="42.583839968" lon="12.766548973"><ele>237</ele><time>2020-09-20T07:26:25Z</time></trkpt>
<trkpt lat="42.583864024" lon="12.76655199"><ele>237</ele><time>2020-09-20T07:26:26Z</time></trkpt>
<trkpt lat="42.58388699" lon="12.766547967"><ele>237</ele><time>2020-09-20T07:26:27Z</time></trkpt>
<trkpt lat="42.583906017" lon="12.766536986"><ele>236</ele><time>2020-09-20T07:26:28Z</time></trkpt>
<trkpt lat="42.583922027" lon="12.766516032"><ele>236</ele><time>2020-09-20T07:26:29Z</time></trkpt>
<trkpt lat="42.583935019" lon="12.766486024"><ele>235</ele><time>2020-09-20T07:26:30Z</time></trkpt>
<trkpt lat="42.583950022" lon="12.766402038"><ele>234</ele><time>2020-09-20T07:26:32Z</time></trkpt>
<trkpt lat="42.583954968" lon="12.766351998"><ele>233</ele><time>2020-09-20T07:26:33Z</time></trkpt>
<trkpt lat="42.583956979" lon="12.766299024"><ele>232</ele><time>2020-09-20T07:26:34Z</time></trkpt>
<trkpt lat="42.583958991" lon="12.766244039"><ele>231</ele><time>2020-09-20T07:26:35Z</time></trkpt>
<trkpt lat="42.583959997" lon="12.76618897"><ele>231</ele><time>2020-09-20T07:26:36Z</time></trkpt>
<trkpt lat="42.583961003" lon="12.766135996"><ele>230</ele><time>2020-09-20T07:26:37Z</time></trkpt>
<trkpt lat="42.583963014" lon="12.76608604"><ele>229</ele><time>2020-09-20T07:26:38Z</time></trkpt>
<trkpt lat="42.583965026" lon="12.766039018"><ele>228</ele><time>2020-09-20T07:26:39Z</time></trkpt>
<trkpt lat="42.583968965" lon="12.765994007"><ele>228</ele><time>2020-09-20T07:26:40Z</time></trkpt>
<trkpt lat="42.583973994" lon="12.765950002"><ele>227</ele><time>2020-09-20T07:26:41Z</time></trkpt>
<trkpt lat="42.583980029" lon="12.765905997"><ele>226</ele><time>2020-09-20T07:26:42Z</time></trkpt>
<trkpt lat="42.583986986" lon="12.765862998"><ele>226</ele><time>2020-09-20T07:26:43Z</time></trkpt>
<trkpt lat="42.583993021" lon="12.765818993"><ele>225</ele><time>2020-09-20T07:26:44Z</time></trkpt>
<trkpt lat="42.583996961" lon="12.765778005"><ele>225</ele><time>2020-09-20T07:26:45Z</time></trkpt>
<trkpt lat="42.583996039" lon="12.765738023"><ele>225</ele><time>2020-09-20T07:26:46Z</time></trkpt>
<trkpt lat="42.583986986" lon="12.765701981"><ele>225</ele><time>2020-09-20T07:26:47Z</time></trkpt>
<trkpt lat="42.583973994" lon="12.765668035"><ele>225</ele><time>2020-09-20T07:26:48Z</time></trkpt>
<trkpt lat="42.583958991" lon="12.765632998"><ele>225</ele><time>2020-09-20T07:26:49Z</time></trkpt>
<trkpt lat="42.583943987" lon="12.765597962"><ele>225</ele><time>2020-09-20T07:26:50Z</time></trkpt>
<trkpt lat="42.583930995" lon="12.765559992"><ele>225</ele><time>2020-09-20T07:26:51Z</time></trkpt>
<trkpt lat="42.583921021" lon="12.765519004"><ele>225</ele><time>2020-09-20T07:26:52Z</time></trkpt>
<trkpt lat="42.583914986" lon="12.765477011"><ele>225</ele><time>2020-09-20T07:26:53Z</time></trkpt>
<trkpt lat="42.58391398" lon="12.765434012"><ele>225</ele><time>2020-09-20T07:26:54Z</time></trkpt>
<trkpt lat="42.583916998" lon="12.765389001"><ele>224</ele><time>2020-09-20T07:26:55Z</time></trkpt>
<trkpt lat="42.583924038" lon="12.76534399"><ele>224</ele><time>2020-09-20T07:26:56Z</time></trkpt>
<trkpt lat="42.583934013" lon="12.765298979"><ele>224</ele><time>2020-09-20T07:26:57Z</time></trkpt>
<trkpt lat="42.583944993" lon="12.765252041"><ele>224</ele><time>2020-09-20T07:26:58Z</time></trkpt>
<trkpt lat="42.583956979" lon="12.765206024"><ele>224</ele><time>2020-09-20T07:26:59Z</time></trkpt>
<trkpt lat="42.583968965" lon="12.765159002"><ele>224</ele><time>2020-09-20T07:27:00Z</time></trkpt>
<trkpt lat="42.583981035" lon="12.765110973"><ele>224</ele><time>2020-09-20T07:27:01Z</time></trkpt>
<trkpt lat="42.583993021" lon="12.765063029"><ele>224</ele><time>2020-09-20T07:27:02Z</time></trkpt>
<trkpt lat="42.584005008" lon="12.765013995"><ele>224</ele><time>2020-09-20T07:27:03Z</time></trkpt>
<trkpt lat="42.584017999" lon="12.764967978"><ele>224</ele><time>2020-09-20T07:27:04Z</time></trkpt>
<trkpt lat="42.584070973" lon="12.764900001"><ele>224</ele><time>2020-09-20T07:27:07Z</time></trkpt>
<trkpt lat="42.584097041" lon="12.764907964"><ele>224</ele><time>2020-09-20T07:27:08Z</time></trkpt>
<trkpt lat="42.584173987" lon="12.764987005"><ele>224</ele><time>2020-09-20T07:27:11Z</time></trkpt>
<trkpt lat="42.584195025" lon="12.765022041"><ele>224</ele><time>2020-09-20T07:27:12Z</time></trkpt>
<trkpt lat="42.584211035" lon="12.765060011"><ele>224</ele><time>2020-09-20T07:27:13Z</time></trkpt>
<trkpt lat="42.584223021" lon="12.765100999"><ele>224</ele><time>2020-09-20T07:27:14Z</time></trkpt>
<trkpt lat="42.584230984" lon="12.76514601"><ele>224</ele><time>2020-09-20T07:27:15Z</time></trkpt>
<trkpt lat="42.584234001" lon="12.765192026"><ele>224</ele><time>2020-09-20T07:27:16Z</time></trkpt>
<trkpt lat="42.584232995" lon="12.765239971"><ele>224</ele><time>2020-09-20T07:27:17Z</time></trkpt>
<trkpt lat="42.584227966" lon="12.765287999"><ele>224</ele><time>2020-09-20T07:27:18Z</time></trkpt>
<trkpt lat="42.584218998" lon="12.765335022"><ele>224</ele><time>2020-09-20T07:27:19Z</time></trkpt>
<trkpt lat="42.584207011" lon="12.765380032"><ele>224</ele><time>2020-09-20T07:27:20Z</time></trkpt>
<trkpt lat="42.584194019" lon="12.765423032"><ele>225</ele><time>2020-09-20T07:27:21Z</time></trkpt>
<trkpt lat="42.584182033" lon="12.765463013"><ele>225</ele><time>2020-09-20T07:27:22Z</time></trkpt>
<trkpt lat="42.584173987" lon="12.765501989"><ele>225</ele><time>2020-09-20T07:27:23Z</time></trkpt>
<trkpt lat="42.584170969" lon="12.765539037"><ele>225</ele><time>2020-09-20T07:27:24Z</time></trkpt>
<trkpt lat="42.584173987" lon="12.765570972"><ele>225</ele><time>2020-09-20T07:27:25Z</time></trkpt>
<trkpt lat="42.584180022" lon="12.765594022"><ele>225</ele><time>2020-09-20T07:27:26Z</time></trkpt>
<trkpt lat="42.584187984" lon="12.765602991"><ele>225</ele><time>2020-09-20T07:27:27Z</time></trkpt>
<trkpt lat="42.584197037" lon="12.765597962"><ele>225</ele><time>2020-09-20T07:27:28Z</time></trkpt>
<trkpt lat="42.584208017" lon="12.765579019"><ele>225</ele><time>2020-09-20T07:27:29Z</time></trkpt>
<trkpt lat="42.584218998" lon="12.765549012"><ele>225</ele><time>2020-09-20T07:27:30Z</time></trkpt>
<trkpt lat="42.584243976" lon="12.765464019"><ele>225</ele><time>2020-09-20T07:27:32Z</time></trkpt>
<trkpt lat="42.584256968" lon="12.765415991"><ele>224</ele><time>2020-09-20T07:27:33Z</time></trkpt>
<trkpt lat="42.584271971" lon="12.765366035"><ele>224</ele><time>2020-09-20T07:27:34Z</time></trkpt>
<trkpt lat="42.584287981" lon="12.765319012"><ele>224</ele><time>2020-09-20T07:27:35Z</time></trkpt>
<trkpt lat="42.58430399" lon="12.765275007"><ele>224</ele><time>2020-09-20T07:27:36Z</time></trkpt>
<trkpt lat="42.584319999" lon="12.765233014"><ele>224</ele><time>2020-09-20T07:27:37Z</time></trkpt>
<trkpt lat="42.584337015" lon="12.765194038"><ele>224</ele><time>2020-09-20T07:27:38Z</time></trkpt>
<trkpt lat="42.584353024" lon="12.765153972"><ele>224</ele><time>2020-09-20T07:27:39Z</time></trkpt>
<trkpt lat="42.584369034" lon="12.765113991"><ele>224</ele><time>2020-09-20T07:27:40Z</time></trkpt>
<trkpt lat="42.584384037" lon="12.765073003"><ele>224</ele><time>2020-09-20T07:27:41Z</time></trkpt>
<trkpt lat="42.584399041" lon="12.765032016"><ele>224</ele><time>2020-09-20T07:27:42Z</time></trkpt>
<trkpt lat="42.584414966" lon="12.76499304"><ele>224</ele><time>2020-09-20T07:27:43Z</time></trkpt>
<trkpt lat="42.584432987" lon="12.764956998"><ele>224</ele><time>2020-09-20T07:27:44Z</time></trkpt>
<trkpt lat="42.584448997" lon="12.764929002"><ele>224</ele><time>2020-09-20T07:27:45Z</time></trkpt>
<trkpt lat="42.584461989" lon="12.764912993"><ele>224</ele><time>2020-09-20T07:27:46Z</time></trkpt>
<trkpt lat="42.584470036" lon="12.764915004"><ele>224</ele><time>2020-09-20T07:27:47Z</time></trkpt>
<trkpt lat="42.584471041" lon="12.764938977"><ele>224</ele><time>2020-09-20T07:27:48Z</time></trkpt>
<trkpt lat="42.584466012" lon="12.764978958"><ele>224</ele><time>2020-09-20T07:27:49Z</time></trkpt>
<trkpt lat="42.58445696" lon="12.765030004"><ele>224</ele><time>2020-09-20T07:27:50Z</time></trkpt>
<trkpt lat="42.584444974" lon="12.765083984"><ele>224</ele><time>2020-09-20T07:27:51Z</time></trkpt>
<trkpt lat="42.58442997" lon="12.765136035"><ele>224</ele><time>2020-09-20T07:27:52Z</time></trkpt>
<trkpt lat="42.584413961" lon="12.765184985"><ele>224</ele><time>2020-09-20T07:27:53Z</time></trkpt>
<trkpt lat="42.584380014" lon="12.76527903"><ele>224</ele><time>2020-09-20T07:27:55Z</time></trkpt>
<trkpt lat="42.584361993" lon="12.765324963"><ele>224</ele><time>2020-09-20T07:27:56Z</time></trkpt>
<trkpt lat="42.584343972" lon="12.765369974"><ele>224</ele><time>2020-09-20T07:27:57Z</time></trkpt>
<trkpt lat="42.58432704" lon="12.765415991"><ele>224</ele><time>2020-09-20T07:27:58Z</time></trkpt>
<trkpt lat="42.584310025" lon="12.765464019"><ele>224</ele><time>2020-09-20T07:27:59Z</time></trkpt>
<trkpt lat="42.584294016" lon="12.765511042"><ele>225</ele><time>2020-09-20T07:28:00Z</time></trkpt>
<trkpt lat="42.584281024" lon="12.765555969"><ele>225</ele><time>2020-09-20T07:28:01Z</time></trkpt>
<trkpt lat="42.584270965" lon="12.765594022"><ele>225</ele><time>2020-09-20T07:28:02Z</time></trkpt>
<trkpt lat="42.584265014" lon="12.765620006"><ele>225</ele><time>2020-09-20T07:28:03Z</time></trkpt>
<trkpt lat="42.584263002" lon="12.765629981"><ele>225</ele><time>2020-09-20T07:28:04Z</time></trkpt>
<trkpt lat="42.58426602" lon="12.765626041"><ele>225</ele><time>2020-09-20T07:28:05Z</time></trkpt>
<trkpt lat="42.584272977" lon="12.765610032"><ele>225</ele><time>2020-09-20T07:28:06Z</time></trkpt>
<trkpt lat="42.584284041" lon="12.765582036"><ele>225</ele><time>2020-09-20T07:28:07Z</time></trkpt>
<trkpt lat="42.584297033" lon="12.765545994"><ele>225</ele><time>2020-09-20T07:28:08Z</time></trkpt>
<trkpt lat="42.584312037" lon="12.765501989"><ele>224</ele><time>2020-09-20T07:28:09Z</time></trkpt>
<trkpt lat="42.584327962" lon="12.765453039"><ele>224</ele><time>2020-09-20T07:28:10Z</time></trkpt>
<trkpt lat="42.584344978" lon="12.765400987"><ele>224</ele><time>2020-09-20T07:28:11Z</time></trkpt>
<trkpt lat="42.584362999" lon="12.765346002"><ele>224</ele><time>2020-09-20T07:28:12Z</time></trkpt>
<trkpt lat="42.584396023" lon="12.765238965"><ele>224</ele><time>2020-09-20T07:28:14Z</time></trkpt>
<trkpt lat="42.584410021" lon="12.765190015"><ele>224</ele><time>2020-09-20T07:28:15Z</time></trkpt></trkseg></trk><wpt lat="42.584410021" lon="12.765190015"><name>Finish km:3.821, Lat:42.5844, Lon:12.7652</name><sym>Finish</sym><ele>224</ele></wpt><wpt lat="42.578829015" lon="12.763425959"><name>km:1, Lat:42.5788, Lon:12.7634</name><ele>224</ele></wpt><wpt lat="42.57909799" lon="12.756943982"><name>km:2, Lat:42.5791, Lon:12.7569</name><ele>223</ele></wpt><wpt lat="42.581547014" lon="12.766557019"><name>km:3, Lat:42.5815, Lon:12.7666</name><ele>228</ele></wpt></gpx>
